<?xml version="1.0"?>
<gpx xmlns="http://www.topografix.com/GPX/1/1" version="1.1" creator="afstandmeten.nl" xmlns:xsi="http://www.w3.org/2001/XMLSchema-instance" xsi:schemaLocation="http://www.topografix.com/GPX/1/1 http://www.topografix.com/GPX/1/1/gpx.xsd">
  <trk>
    <name>Arc Colombey</name>
    <desc></desc>
    <trkseg>
      <trkpt lat="47.9481919" lon="5.0081621">
        <time>2015-05-13T00:00:00Z</time>
      </trkpt>
      <trkpt lat="47.94819" lon="5.00793">
        <time>2015-05-13T00:00:02Z</time>
      </trkpt>
      <trkpt lat="47.94821" lon="5.00783">
        <time>2015-05-13T00:00:02Z</time>
      </trkpt>
      <trkpt lat="47.94841" lon="5.00801">
        <time>2015-05-13T00:00:04Z</time>
      </trkpt>
      <trkpt lat="47.94867" lon="5.00822">
        <time>2015-05-13T00:00:07Z</time>
      </trkpt>
      <trkpt lat="47.94869" lon="5.00818">
        <time>2015-05-13T00:00:07Z</time>
      </trkpt>
      <trkpt lat="47.94894" lon="5.00771">
        <time>2015-05-13T00:00:11Z</time>
      </trkpt>
      <trkpt lat="47.94919" lon="5.00731">
        <time>2015-05-13T00:00:14Z</time>
      </trkpt>
      <trkpt lat="47.94954" lon="5.00677">
        <time>2015-05-13T00:00:18Z</time>
      </trkpt>
      <trkpt lat="47.94974" lon="5.00644">
        <time>2015-05-13T00:00:20Z</time>
      </trkpt>
      <trkpt lat="47.94986" lon="5.00628">
        <time>2015-05-13T00:00:22Z</time>
      </trkpt>
      <trkpt lat="47.95018" lon="5.00606">
        <time>2015-05-13T00:00:25Z</time>
      </trkpt>
      <trkpt lat="47.95041" lon="5.00595">
        <time>2015-05-13T00:00:27Z</time>
      </trkpt>
      <trkpt lat="47.95061" lon="5.00589">
        <time>2015-05-13T00:00:29Z</time>
      </trkpt>
      <trkpt lat="47.9508" lon="5.00587">
        <time>2015-05-13T00:00:30Z</time>
      </trkpt>
      <trkpt lat="47.95101" lon="5.00591">
        <time>2015-05-13T00:00:32Z</time>
      </trkpt>
      <trkpt lat="47.95146" lon="5.00606">
        <time>2015-05-13T00:00:36Z</time>
      </trkpt>
      <trkpt lat="47.9519" lon="5.00626">
        <time>2015-05-13T00:00:40Z</time>
      </trkpt>
      <trkpt lat="47.95207" lon="5.00634">
        <time>2015-05-13T00:00:41Z</time>
      </trkpt>
      <trkpt lat="47.95225" lon="5.00638">
        <time>2015-05-13T00:00:43Z</time>
      </trkpt>
      <trkpt lat="47.95239" lon="5.00638">
        <time>2015-05-13T00:00:44Z</time>
      </trkpt>
      <trkpt lat="47.95245" lon="5.00636">
        <time>2015-05-13T00:00:44Z</time>
      </trkpt>
      <trkpt lat="47.95245" lon="5.00636">
        <time>2015-05-13T00:00:44Z</time>
      </trkpt>
      <trkpt lat="47.95256" lon="5.00633">
        <time>2015-05-13T00:00:45Z</time>
      </trkpt>
      <trkpt lat="47.95264" lon="5.00627">
        <time>2015-05-13T00:00:46Z</time>
      </trkpt>
      <trkpt lat="47.95314" lon="5.00582">
        <time>2015-05-13T00:00:51Z</time>
      </trkpt>
      <trkpt lat="47.95338" lon="5.00568">
        <time>2015-05-13T00:00:53Z</time>
      </trkpt>
      <trkpt lat="47.95365" lon="5.00558">
        <time>2015-05-13T00:00:56Z</time>
      </trkpt>
      <trkpt lat="47.95383" lon="5.00554">
        <time>2015-05-13T00:00:57Z</time>
      </trkpt>
      <trkpt lat="47.95405" lon="5.00545">
        <time>2015-05-13T00:00:59Z</time>
      </trkpt>
      <trkpt lat="47.95432" lon="5.00527">
        <time>2015-05-13T00:01:02Z</time>
      </trkpt>
      <trkpt lat="47.95468" lon="5.0049">
        <time>2015-05-13T00:01:05Z</time>
      </trkpt>
      <trkpt lat="47.95487" lon="5.00459">
        <time>2015-05-13T00:01:08Z</time>
      </trkpt>
      <trkpt lat="47.95498" lon="5.00438">
        <time>2015-05-13T00:01:09Z</time>
      </trkpt>
      <trkpt lat="47.95521" lon="5.00376">
        <time>2015-05-13T00:01:13Z</time>
      </trkpt>
      <trkpt lat="47.95545" lon="5.00318">
        <time>2015-05-13T00:01:17Z</time>
      </trkpt>
      <trkpt lat="47.95565" lon="5.00276">
        <time>2015-05-13T00:01:20Z</time>
      </trkpt>
      <trkpt lat="47.95604" lon="5.00207">
        <time>2015-05-13T00:01:25Z</time>
      </trkpt>
      <trkpt lat="47.95617" lon="5.00175">
        <time>2015-05-13T00:01:27Z</time>
      </trkpt>
      <trkpt lat="47.95636" lon="5.00116">
        <time>2015-05-13T00:01:31Z</time>
      </trkpt>
      <trkpt lat="47.95664" lon="5.0004">
        <time>2015-05-13T00:01:36Z</time>
      </trkpt>
      <trkpt lat="47.9571" lon="4.99923">
        <time>2015-05-13T00:01:44Z</time>
      </trkpt>
      <trkpt lat="47.95735" lon="4.99832">
        <time>2015-05-13T00:01:49Z</time>
      </trkpt>
      <trkpt lat="47.95749" lon="4.99763">
        <time>2015-05-13T00:01:53Z</time>
      </trkpt>
      <trkpt lat="47.95755" lon="4.99714">
        <time>2015-05-13T00:01:56Z</time>
      </trkpt>
      <trkpt lat="47.95757" lon="4.9962">
        <time>2015-05-13T00:02:01Z</time>
      </trkpt>
      <trkpt lat="47.95758" lon="4.99552">
        <time>2015-05-13T00:02:05Z</time>
      </trkpt>
      <trkpt lat="47.95765" lon="4.99494">
        <time>2015-05-13T00:02:08Z</time>
      </trkpt>
      <trkpt lat="47.95776" lon="4.99441">
        <time>2015-05-13T00:02:12Z</time>
      </trkpt>
      <trkpt lat="47.95794" lon="4.99379">
        <time>2015-05-13T00:02:15Z</time>
      </trkpt>
      <trkpt lat="47.9583" lon="4.99285">
        <time>2015-05-13T00:02:22Z</time>
      </trkpt>
      <trkpt lat="47.95873" lon="4.99188">
        <time>2015-05-13T00:02:28Z</time>
      </trkpt>
      <trkpt lat="47.95915" lon="4.9911">
        <time>2015-05-13T00:02:34Z</time>
      </trkpt>
      <trkpt lat="47.95942" lon="4.99064">
        <time>2015-05-13T00:02:37Z</time>
      </trkpt>
      <trkpt lat="47.95986" lon="4.99001">
        <time>2015-05-13T00:02:42Z</time>
      </trkpt>
      <trkpt lat="47.96" lon="4.98984">
        <time>2015-05-13T00:02:44Z</time>
      </trkpt>
      <trkpt lat="47.96105" lon="4.98882">
        <time>2015-05-13T00:02:55Z</time>
      </trkpt>
      <trkpt lat="47.96189" lon="4.98799">
        <time>2015-05-13T00:03:03Z</time>
      </trkpt>
      <trkpt lat="47.96248" lon="4.98753">
        <time>2015-05-13T00:03:09Z</time>
      </trkpt>
      <trkpt lat="47.96291" lon="4.98725">
        <time>2015-05-13T00:03:13Z</time>
      </trkpt>
      <trkpt lat="47.96327" lon="4.98706">
        <time>2015-05-13T00:03:16Z</time>
      </trkpt>
      <trkpt lat="47.96332" lon="4.98704">
        <time>2015-05-13T00:03:16Z</time>
      </trkpt>
      <trkpt lat="47.96332" lon="4.98704">
        <time>2015-05-13T00:03:16Z</time>
      </trkpt>
      <trkpt lat="47.96381" lon="4.98681">
        <time>2015-05-13T00:03:21Z</time>
      </trkpt>
      <trkpt lat="47.96407" lon="4.98666">
        <time>2015-05-13T00:03:23Z</time>
      </trkpt>
      <trkpt lat="47.96421" lon="4.98656">
        <time>2015-05-13T00:03:24Z</time>
      </trkpt>
      <trkpt lat="47.96444" lon="4.98631">
        <time>2015-05-13T00:03:27Z</time>
      </trkpt>
      <trkpt lat="47.96464" lon="4.986">
        <time>2015-05-13T00:03:29Z</time>
      </trkpt>
      <trkpt lat="47.96478" lon="4.98575">
        <time>2015-05-13T00:03:31Z</time>
      </trkpt>
      <trkpt lat="47.96489" lon="4.98551">
        <time>2015-05-13T00:03:33Z</time>
      </trkpt>
      <trkpt lat="47.96502" lon="4.98517">
        <time>2015-05-13T00:03:35Z</time>
      </trkpt>
      <trkpt lat="47.96514" lon="4.98477">
        <time>2015-05-13T00:03:37Z</time>
      </trkpt>
      <trkpt lat="47.96523" lon="4.98406">
        <time>2015-05-13T00:03:41Z</time>
      </trkpt>
      <trkpt lat="47.96524" lon="4.98355">
        <time>2015-05-13T00:03:44Z</time>
      </trkpt>
      <trkpt lat="47.96522" lon="4.98291">
        <time>2015-05-13T00:03:48Z</time>
      </trkpt>
      <trkpt lat="47.96523" lon="4.98237">
        <time>2015-05-13T00:03:51Z</time>
      </trkpt>
      <trkpt lat="47.96527" lon="4.98205">
        <time>2015-05-13T00:03:53Z</time>
      </trkpt>
      <trkpt lat="47.96537" lon="4.98165">
        <time>2015-05-13T00:03:55Z</time>
      </trkpt>
      <trkpt lat="47.96552" lon="4.98118">
        <time>2015-05-13T00:03:58Z</time>
      </trkpt>
      <trkpt lat="47.96569" lon="4.98078">
        <time>2015-05-13T00:04:01Z</time>
      </trkpt>
      <trkpt lat="47.96587" lon="4.98034">
        <time>2015-05-13T00:04:04Z</time>
      </trkpt>
      <trkpt lat="47.96604" lon="4.97975">
        <time>2015-05-13T00:04:07Z</time>
      </trkpt>
      <trkpt lat="47.9664" lon="4.97832">
        <time>2015-05-13T00:04:16Z</time>
      </trkpt>
      <trkpt lat="47.96649" lon="4.97815">
        <time>2015-05-13T00:04:17Z</time>
      </trkpt>
      <trkpt lat="47.96667" lon="4.97791">
        <time>2015-05-13T00:04:19Z</time>
      </trkpt>
      <trkpt lat="47.96692" lon="4.97762">
        <time>2015-05-13T00:04:22Z</time>
      </trkpt>
      <trkpt lat="47.96709" lon="4.97735">
        <time>2015-05-13T00:04:24Z</time>
      </trkpt>
      <trkpt lat="47.96716" lon="4.97716">
        <time>2015-05-13T00:04:25Z</time>
      </trkpt>
      <trkpt lat="47.9672" lon="4.9769">
        <time>2015-05-13T00:04:27Z</time>
      </trkpt>
      <trkpt lat="47.9672" lon="4.97662">
        <time>2015-05-13T00:04:29Z</time>
      </trkpt>
      <trkpt lat="47.96706" lon="4.9759">
        <time>2015-05-13T00:04:33Z</time>
      </trkpt>
      <trkpt lat="47.9671" lon="4.97529">
        <time>2015-05-13T00:04:36Z</time>
      </trkpt>
      <trkpt lat="47.96715" lon="4.97493">
        <time>2015-05-13T00:04:38Z</time>
      </trkpt>
      <trkpt lat="47.9673" lon="4.97447">
        <time>2015-05-13T00:04:41Z</time>
      </trkpt>
      <trkpt lat="47.96753" lon="4.9739">
        <time>2015-05-13T00:04:45Z</time>
      </trkpt>
      <trkpt lat="47.96762" lon="4.97376">
        <time>2015-05-13T00:04:46Z</time>
      </trkpt>
      <trkpt lat="47.96772" lon="4.97363">
        <time>2015-05-13T00:04:47Z</time>
      </trkpt>
      <trkpt lat="47.96795" lon="4.9734">
        <time>2015-05-13T00:04:50Z</time>
      </trkpt>
      <trkpt lat="47.96841" lon="4.97303">
        <time>2015-05-13T00:04:54Z</time>
      </trkpt>
      <trkpt lat="47.96907" lon="4.9726">
        <time>2015-05-13T00:05:00Z</time>
      </trkpt>
      <trkpt lat="47.96938" lon="4.9724">
        <time>2015-05-13T00:05:03Z</time>
      </trkpt>
      <trkpt lat="47.96962" lon="4.97219">
        <time>2015-05-13T00:05:05Z</time>
      </trkpt>
      <trkpt lat="47.96993" lon="4.9719">
        <time>2015-05-13T00:05:08Z</time>
      </trkpt>
      <trkpt lat="47.97022" lon="4.97171">
        <time>2015-05-13T00:05:11Z</time>
      </trkpt>
      <trkpt lat="47.9708" lon="4.97141">
        <time>2015-05-13T00:05:16Z</time>
      </trkpt>
      <trkpt lat="47.97138" lon="4.97111">
        <time>2015-05-13T00:05:21Z</time>
      </trkpt>
      <trkpt lat="47.9715" lon="4.97102">
        <time>2015-05-13T00:05:23Z</time>
      </trkpt>
      <trkpt lat="47.97161" lon="4.97091">
        <time>2015-05-13T00:05:24Z</time>
      </trkpt>
      <trkpt lat="47.97183" lon="4.97062">
        <time>2015-05-13T00:05:26Z</time>
      </trkpt>
      <trkpt lat="47.97235" lon="4.96984">
        <time>2015-05-13T00:05:32Z</time>
      </trkpt>
      <trkpt lat="47.97267" lon="4.96932">
        <time>2015-05-13T00:05:36Z</time>
      </trkpt>
      <trkpt lat="47.97294" lon="4.96884">
        <time>2015-05-13T00:05:40Z</time>
      </trkpt>
      <trkpt lat="47.97308" lon="4.96851">
        <time>2015-05-13T00:05:42Z</time>
      </trkpt>
      <trkpt lat="47.97315" lon="4.96825">
        <time>2015-05-13T00:05:44Z</time>
      </trkpt>
      <trkpt lat="47.97324" lon="4.96778">
        <time>2015-05-13T00:05:46Z</time>
      </trkpt>
      <trkpt lat="47.97327" lon="4.96733">
        <time>2015-05-13T00:05:49Z</time>
      </trkpt>
      <trkpt lat="47.97326" lon="4.96694">
        <time>2015-05-13T00:05:51Z</time>
      </trkpt>
      <trkpt lat="47.97324" lon="4.96662">
        <time>2015-05-13T00:05:53Z</time>
      </trkpt>
      <trkpt lat="47.97316" lon="4.96596">
        <time>2015-05-13T00:05:57Z</time>
      </trkpt>
      <trkpt lat="47.97288" lon="4.9648">
        <time>2015-05-13T00:06:04Z</time>
      </trkpt>
      <trkpt lat="47.97266" lon="4.96416">
        <time>2015-05-13T00:06:08Z</time>
      </trkpt>
      <trkpt lat="47.9725" lon="4.96374">
        <time>2015-05-13T00:06:11Z</time>
      </trkpt>
      <trkpt lat="47.97235" lon="4.96332">
        <time>2015-05-13T00:06:13Z</time>
      </trkpt>
      <trkpt lat="47.97227" lon="4.96304">
        <time>2015-05-13T00:06:15Z</time>
      </trkpt>
      <trkpt lat="47.97213" lon="4.96207">
        <time>2015-05-13T00:06:21Z</time>
      </trkpt>
      <trkpt lat="47.97194" lon="4.9609">
        <time>2015-05-13T00:06:27Z</time>
      </trkpt>
      <trkpt lat="47.97176" lon="4.96023">
        <time>2015-05-13T00:06:32Z</time>
      </trkpt>
      <trkpt lat="47.97158" lon="4.9595">
        <time>2015-05-13T00:06:36Z</time>
      </trkpt>
      <trkpt lat="47.97137" lon="4.95822">
        <time>2015-05-13T00:06:43Z</time>
      </trkpt>
      <trkpt lat="47.97127" lon="4.95748">
        <time>2015-05-13T00:06:48Z</time>
      </trkpt>
      <trkpt lat="47.97126" lon="4.95688">
        <time>2015-05-13T00:06:51Z</time>
      </trkpt>
      <trkpt lat="47.97128" lon="4.95641">
        <time>2015-05-13T00:06:54Z</time>
      </trkpt>
      <trkpt lat="47.97135" lon="4.95596">
        <time>2015-05-13T00:06:56Z</time>
      </trkpt>
      <trkpt lat="47.97152" lon="4.95535">
        <time>2015-05-13T00:07:00Z</time>
      </trkpt>
      <trkpt lat="47.97213" lon="4.95344">
        <time>2015-05-13T00:07:12Z</time>
      </trkpt>
      <trkpt lat="47.97228" lon="4.95302">
        <time>2015-05-13T00:07:15Z</time>
      </trkpt>
      <trkpt lat="47.97247" lon="4.9526">
        <time>2015-05-13T00:07:18Z</time>
      </trkpt>
      <trkpt lat="47.97272" lon="4.95218">
        <time>2015-05-13T00:07:21Z</time>
      </trkpt>
      <trkpt lat="47.97286" lon="4.952">
        <time>2015-05-13T00:07:22Z</time>
      </trkpt>
      <trkpt lat="47.97313" lon="4.95171">
        <time>2015-05-13T00:07:25Z</time>
      </trkpt>
      <trkpt lat="47.97333" lon="4.95154">
        <time>2015-05-13T00:07:27Z</time>
      </trkpt>
      <trkpt lat="47.97366" lon="4.9513">
        <time>2015-05-13T00:07:30Z</time>
      </trkpt>
      <trkpt lat="47.97432" lon="4.95081">
        <time>2015-05-13T00:07:36Z</time>
      </trkpt>
      <trkpt lat="47.97504" lon="4.95023">
        <time>2015-05-13T00:07:43Z</time>
      </trkpt>
      <trkpt lat="47.97594" lon="4.9494">
        <time>2015-05-13T00:07:52Z</time>
      </trkpt>
      <trkpt lat="47.9765" lon="4.94889">
        <time>2015-05-13T00:07:58Z</time>
      </trkpt>
      <trkpt lat="47.97667" lon="4.94869">
        <time>2015-05-13T00:08:00Z</time>
      </trkpt>
      <trkpt lat="47.97678" lon="4.94852">
        <time>2015-05-13T00:08:01Z</time>
      </trkpt>
      <trkpt lat="47.97686" lon="4.94836">
        <time>2015-05-13T00:08:02Z</time>
      </trkpt>
      <trkpt lat="47.977" lon="4.94795">
        <time>2015-05-13T00:08:05Z</time>
      </trkpt>
      <trkpt lat="47.9771" lon="4.94745">
        <time>2015-05-13T00:08:08Z</time>
      </trkpt>
      <trkpt lat="47.97714" lon="4.94701">
        <time>2015-05-13T00:08:10Z</time>
      </trkpt>
      <trkpt lat="47.97713" lon="4.94665">
        <time>2015-05-13T00:08:12Z</time>
      </trkpt>
      <trkpt lat="47.97708" lon="4.94622">
        <time>2015-05-13T00:08:15Z</time>
      </trkpt>
      <trkpt lat="47.97705" lon="4.94569">
        <time>2015-05-13T00:08:18Z</time>
      </trkpt>
      <trkpt lat="47.97707" lon="4.94544">
        <time>2015-05-13T00:08:19Z</time>
      </trkpt>
      <trkpt lat="47.97712" lon="4.94518">
        <time>2015-05-13T00:08:21Z</time>
      </trkpt>
      <trkpt lat="47.97716" lon="4.94502">
        <time>2015-05-13T00:08:22Z</time>
      </trkpt>
      <trkpt lat="47.97729" lon="4.94457">
        <time>2015-05-13T00:08:24Z</time>
      </trkpt>
      <trkpt lat="47.97753" lon="4.94402">
        <time>2015-05-13T00:08:28Z</time>
      </trkpt>
      <trkpt lat="47.97757" lon="4.94388">
        <time>2015-05-13T00:08:29Z</time>
      </trkpt>
      <trkpt lat="47.97758" lon="4.94377">
        <time>2015-05-13T00:08:30Z</time>
      </trkpt>
      <trkpt lat="47.97756" lon="4.9436">
        <time>2015-05-13T00:08:31Z</time>
      </trkpt>
      <trkpt lat="47.97748" lon="4.94345">
        <time>2015-05-13T00:08:32Z</time>
      </trkpt>
      <trkpt lat="47.97725" lon="4.94309">
        <time>2015-05-13T00:08:35Z</time>
      </trkpt>
      <trkpt lat="47.97722" lon="4.943">
        <time>2015-05-13T00:08:35Z</time>
      </trkpt>
      <trkpt lat="47.97722" lon="4.94277">
        <time>2015-05-13T00:08:36Z</time>
      </trkpt>
      <trkpt lat="47.97724" lon="4.94267">
        <time>2015-05-13T00:08:37Z</time>
      </trkpt>
      <trkpt lat="47.97746" lon="4.94217">
        <time>2015-05-13T00:08:40Z</time>
      </trkpt>
      <trkpt lat="47.97825" lon="4.94049">
        <time>2015-05-13T00:08:52Z</time>
      </trkpt>
      <trkpt lat="47.97839" lon="4.94016">
        <time>2015-05-13T00:08:54Z</time>
      </trkpt>
      <trkpt lat="47.97849" lon="4.93984">
        <time>2015-05-13T00:08:56Z</time>
      </trkpt>
      <trkpt lat="47.97884" lon="4.93855">
        <time>2015-05-13T00:09:04Z</time>
      </trkpt>
      <trkpt lat="47.97897" lon="4.93816">
        <time>2015-05-13T00:09:07Z</time>
      </trkpt>
      <trkpt lat="47.97909" lon="4.93786">
        <time>2015-05-13T00:09:09Z</time>
      </trkpt>
      <trkpt lat="47.97922" lon="4.93762">
        <time>2015-05-13T00:09:10Z</time>
      </trkpt>
      <trkpt lat="47.97937" lon="4.93739">
        <time>2015-05-13T00:09:12Z</time>
      </trkpt>
      <trkpt lat="47.97958" lon="4.93713">
        <time>2015-05-13T00:09:14Z</time>
      </trkpt>
      <trkpt lat="47.97978" lon="4.93692">
        <time>2015-05-13T00:09:16Z</time>
      </trkpt>
      <trkpt lat="47.98031" lon="4.93654">
        <time>2015-05-13T00:09:21Z</time>
      </trkpt>
      <trkpt lat="47.98169" lon="4.93556">
        <time>2015-05-13T00:09:34Z</time>
      </trkpt>
      <trkpt lat="47.98194" lon="4.93542">
        <time>2015-05-13T00:09:37Z</time>
      </trkpt>
      <trkpt lat="47.98225" lon="4.9353">
        <time>2015-05-13T00:09:39Z</time>
      </trkpt>
      <trkpt lat="47.98331" lon="4.93505">
        <time>2015-05-13T00:09:48Z</time>
      </trkpt>
      <trkpt lat="47.98406" lon="4.93479">
        <time>2015-05-13T00:09:55Z</time>
      </trkpt>
      <trkpt lat="47.98512" lon="4.93431">
        <time>2015-05-13T00:10:04Z</time>
      </trkpt>
      <trkpt lat="47.98576" lon="4.93402">
        <time>2015-05-13T00:10:10Z</time>
      </trkpt>
      <trkpt lat="47.98576" lon="4.93402">
        <time>2015-05-13T00:10:10Z</time>
      </trkpt>
      <trkpt lat="47.98718" lon="4.93335">
        <time>2015-05-13T00:10:23Z</time>
      </trkpt>
      <trkpt lat="47.98776" lon="4.93307">
        <time>2015-05-13T00:10:28Z</time>
      </trkpt>
      <trkpt lat="47.98843" lon="4.93266">
        <time>2015-05-13T00:10:34Z</time>
      </trkpt>
      <trkpt lat="47.98959" lon="4.93185">
        <time>2015-05-13T00:10:45Z</time>
      </trkpt>
      <trkpt lat="47.98974" lon="4.93173">
        <time>2015-05-13T00:10:46Z</time>
      </trkpt>
      <trkpt lat="47.98999" lon="4.93147">
        <time>2015-05-13T00:10:49Z</time>
      </trkpt>
      <trkpt lat="47.99022" lon="4.93117">
        <time>2015-05-13T00:10:51Z</time>
      </trkpt>
      <trkpt lat="47.99037" lon="4.93091">
        <time>2015-05-13T00:10:53Z</time>
      </trkpt>
      <trkpt lat="47.99059" lon="4.93042">
        <time>2015-05-13T00:10:57Z</time>
      </trkpt>
      <trkpt lat="47.99088" lon="4.92952">
        <time>2015-05-13T00:11:02Z</time>
      </trkpt>
      <trkpt lat="47.99116" lon="4.92871">
        <time>2015-05-13T00:11:07Z</time>
      </trkpt>
      <trkpt lat="47.99145" lon="4.9281">
        <time>2015-05-13T00:11:12Z</time>
      </trkpt>
      <trkpt lat="47.99179" lon="4.92752">
        <time>2015-05-13T00:11:16Z</time>
      </trkpt>
      <trkpt lat="47.99202" lon="4.9272">
        <time>2015-05-13T00:11:19Z</time>
      </trkpt>
      <trkpt lat="47.99249" lon="4.92673">
        <time>2015-05-13T00:11:23Z</time>
      </trkpt>
      <trkpt lat="47.99301" lon="4.92624">
        <time>2015-05-13T00:11:29Z</time>
      </trkpt>
      <trkpt lat="47.9934" lon="4.92588">
        <time>2015-05-13T00:11:32Z</time>
      </trkpt>
      <trkpt lat="47.9936" lon="4.92565">
        <time>2015-05-13T00:11:35Z</time>
      </trkpt>
      <trkpt lat="47.99376" lon="4.92548">
        <time>2015-05-13T00:11:36Z</time>
      </trkpt>
      <trkpt lat="47.99419" lon="4.92498">
        <time>2015-05-13T00:11:41Z</time>
      </trkpt>
      <trkpt lat="47.99471" lon="4.92442">
        <time>2015-05-13T00:11:46Z</time>
      </trkpt>
      <trkpt lat="47.9949" lon="4.92426">
        <time>2015-05-13T00:11:48Z</time>
      </trkpt>
      <trkpt lat="47.99551" lon="4.92388">
        <time>2015-05-13T00:11:54Z</time>
      </trkpt>
      <trkpt lat="47.99569" lon="4.92374">
        <time>2015-05-13T00:11:55Z</time>
      </trkpt>
      <trkpt lat="47.99582" lon="4.92359">
        <time>2015-05-13T00:11:57Z</time>
      </trkpt>
      <trkpt lat="47.9961" lon="4.9232">
        <time>2015-05-13T00:12:00Z</time>
      </trkpt>
      <trkpt lat="47.99714" lon="4.92134">
        <time>2015-05-13T00:12:14Z</time>
      </trkpt>
      <trkpt lat="47.9981" lon="4.91964">
        <time>2015-05-13T00:12:26Z</time>
      </trkpt>
      <trkpt lat="47.99848" lon="4.91892">
        <time>2015-05-13T00:12:31Z</time>
      </trkpt>
      <trkpt lat="47.99864" lon="4.9185">
        <time>2015-05-13T00:12:34Z</time>
      </trkpt>
      <trkpt lat="47.99873" lon="4.91809">
        <time>2015-05-13T00:12:37Z</time>
      </trkpt>
      <trkpt lat="47.99924" lon="4.9151">
        <time>2015-05-13T00:12:54Z</time>
      </trkpt>
      <trkpt lat="47.99948" lon="4.91377">
        <time>2015-05-13T00:13:02Z</time>
      </trkpt>
      <trkpt lat="47.99962" lon="4.91321">
        <time>2015-05-13T00:13:05Z</time>
      </trkpt>
      <trkpt lat="48.00019" lon="4.91155">
        <time>2015-05-13T00:13:16Z</time>
      </trkpt>
      <trkpt lat="48.00059" lon="4.91044">
        <time>2015-05-13T00:13:23Z</time>
      </trkpt>
      <trkpt lat="48.00078" lon="4.90998">
        <time>2015-05-13T00:13:26Z</time>
      </trkpt>
      <trkpt lat="48.00096" lon="4.90962">
        <time>2015-05-13T00:13:29Z</time>
      </trkpt>
      <trkpt lat="48.00135" lon="4.90891">
        <time>2015-05-13T00:13:34Z</time>
      </trkpt>
      <trkpt lat="48.00243" lon="4.90698">
        <time>2015-05-13T00:13:48Z</time>
      </trkpt>
      <trkpt lat="48.00292" lon="4.90608">
        <time>2015-05-13T00:13:55Z</time>
      </trkpt>
      <trkpt lat="48.00329" lon="4.90545">
        <time>2015-05-13T00:13:59Z</time>
      </trkpt>
      <trkpt lat="48.00487" lon="4.90317">
        <time>2015-05-13T00:14:18Z</time>
      </trkpt>
      <trkpt lat="48.00487" lon="4.90317">
        <time>2015-05-13T00:14:18Z</time>
      </trkpt>
      <trkpt lat="48.00506" lon="4.90289">
        <time>2015-05-13T00:14:20Z</time>
      </trkpt>
      <trkpt lat="48.00601" lon="4.90325">
        <time>2015-05-13T00:14:28Z</time>
      </trkpt>
      <trkpt lat="48.00707" lon="4.90363">
        <time>2015-05-13T00:14:38Z</time>
      </trkpt>
      <trkpt lat="48.00852" lon="4.9042">
        <time>2015-05-13T00:14:50Z</time>
      </trkpt>
      <trkpt lat="48.0135" lon="4.90608">
        <time>2015-05-13T00:15:34Z</time>
      </trkpt>
      <trkpt lat="48.02702" lon="4.91114">
        <time>2015-05-13T00:17:32Z</time>
      </trkpt>
      <trkpt lat="48.02726" lon="4.91132">
        <time>2015-05-13T00:17:34Z</time>
      </trkpt>
      <trkpt lat="48.02738" lon="4.91151">
        <time>2015-05-13T00:17:35Z</time>
      </trkpt>
      <trkpt lat="48.02743" lon="4.91158">
        <time>2015-05-13T00:17:36Z</time>
      </trkpt>
      <trkpt lat="48.0275" lon="4.91163">
        <time>2015-05-13T00:17:37Z</time>
      </trkpt>
      <trkpt lat="48.02758" lon="4.91164">
        <time>2015-05-13T00:17:37Z</time>
      </trkpt>
      <trkpt lat="48.02766" lon="4.9116">
        <time>2015-05-13T00:17:38Z</time>
      </trkpt>
      <trkpt lat="48.02769" lon="4.91157">
        <time>2015-05-13T00:17:38Z</time>
      </trkpt>
      <trkpt lat="48.02771" lon="4.91155">
        <time>2015-05-13T00:17:38Z</time>
      </trkpt>
      <trkpt lat="48.02779" lon="4.91152">
        <time>2015-05-13T00:17:39Z</time>
      </trkpt>
      <trkpt lat="48.02807" lon="4.91153">
        <time>2015-05-13T00:17:42Z</time>
      </trkpt>
      <trkpt lat="48.02895" lon="4.91189">
        <time>2015-05-13T00:17:49Z</time>
      </trkpt>
      <trkpt lat="48.02998" lon="4.91227">
        <time>2015-05-13T00:17:58Z</time>
      </trkpt>
      <trkpt lat="48.02998" lon="4.91227">
        <time>2015-05-13T00:17:58Z</time>
      </trkpt>
      <trkpt lat="48.03073" lon="4.91254">
        <time>2015-05-13T00:18:05Z</time>
      </trkpt>
      <trkpt lat="48.0308" lon="4.91253">
        <time>2015-05-13T00:18:05Z</time>
      </trkpt>
      <trkpt lat="48.03115" lon="4.91266">
        <time>2015-05-13T00:18:08Z</time>
      </trkpt>
      <trkpt lat="48.0316" lon="4.91283">
        <time>2015-05-13T00:18:12Z</time>
      </trkpt>
      <trkpt lat="48.03237" lon="4.91312">
        <time>2015-05-13T00:18:19Z</time>
      </trkpt>
      <trkpt lat="48.03253" lon="4.91322">
        <time>2015-05-13T00:18:20Z</time>
      </trkpt>
      <trkpt lat="48.0329" lon="4.91336">
        <time>2015-05-13T00:18:24Z</time>
      </trkpt>
      <trkpt lat="48.03326" lon="4.91348">
        <time>2015-05-13T00:18:27Z</time>
      </trkpt>
      <trkpt lat="48.03363" lon="4.91357">
        <time>2015-05-13T00:18:30Z</time>
      </trkpt>
      <trkpt lat="48.03389" lon="4.91361">
        <time>2015-05-13T00:18:32Z</time>
      </trkpt>
      <trkpt lat="48.03404" lon="4.91356">
        <time>2015-05-13T00:18:33Z</time>
      </trkpt>
      <trkpt lat="48.0342" lon="4.91348">
        <time>2015-05-13T00:18:35Z</time>
      </trkpt>
      <trkpt lat="48.03421" lon="4.91346">
        <time>2015-05-13T00:18:35Z</time>
      </trkpt>
      <trkpt lat="48.03424" lon="4.91342">
        <time>2015-05-13T00:18:35Z</time>
      </trkpt>
      <trkpt lat="48.03428" lon="4.91339">
        <time>2015-05-13T00:18:36Z</time>
      </trkpt>
      <trkpt lat="48.03436" lon="4.91338">
        <time>2015-05-13T00:18:36Z</time>
      </trkpt>
      <trkpt lat="48.03443" lon="4.91342">
        <time>2015-05-13T00:18:37Z</time>
      </trkpt>
      <trkpt lat="48.03444" lon="4.91344">
        <time>2015-05-13T00:18:37Z</time>
      </trkpt>
      <trkpt lat="48.0346" lon="4.91352">
        <time>2015-05-13T00:18:39Z</time>
      </trkpt>
      <trkpt lat="48.03488" lon="4.91355">
        <time>2015-05-13T00:18:41Z</time>
      </trkpt>
      <trkpt lat="48.03565" lon="4.91337">
        <time>2015-05-13T00:18:48Z</time>
      </trkpt>
      <trkpt lat="48.03607" lon="4.9134">
        <time>2015-05-13T00:18:51Z</time>
      </trkpt>
      <trkpt lat="48.03629" lon="4.91345">
        <time>2015-05-13T00:18:53Z</time>
      </trkpt>
      <trkpt lat="48.03637" lon="4.91348">
        <time>2015-05-13T00:18:54Z</time>
      </trkpt>
      <trkpt lat="48.03663" lon="4.91361">
        <time>2015-05-13T00:18:56Z</time>
      </trkpt>
      <trkpt lat="48.03678" lon="4.91376">
        <time>2015-05-13T00:18:58Z</time>
      </trkpt>
      <trkpt lat="48.03697" lon="4.91395">
        <time>2015-05-13T00:19:00Z</time>
      </trkpt>
      <trkpt lat="48.03697" lon="4.91407">
        <time>2015-05-13T00:19:00Z</time>
      </trkpt>
      <trkpt lat="48.03699" lon="4.91411">
        <time>2015-05-13T00:19:00Z</time>
      </trkpt>
      <trkpt lat="48.03721" lon="4.91448">
        <time>2015-05-13T00:19:03Z</time>
      </trkpt>
      <trkpt lat="48.03763" lon="4.91501">
        <time>2015-05-13T00:19:08Z</time>
      </trkpt>
      <trkpt lat="48.0378" lon="4.91529">
        <time>2015-05-13T00:19:10Z</time>
      </trkpt>
      <trkpt lat="48.03789" lon="4.91547">
        <time>2015-05-13T00:19:11Z</time>
      </trkpt>
      <trkpt lat="48.03846" lon="4.91675">
        <time>2015-05-13T00:19:20Z</time>
      </trkpt>
      <trkpt lat="48.03852" lon="4.91711">
        <time>2015-05-13T00:19:22Z</time>
      </trkpt>
      <trkpt lat="48.03859" lon="4.91822">
        <time>2015-05-13T00:19:28Z</time>
      </trkpt>
      <trkpt lat="48.0386" lon="4.91864">
        <time>2015-05-13T00:19:31Z</time>
      </trkpt>
      <trkpt lat="48.03866" lon="4.91864">
        <time>2015-05-13T00:19:31Z</time>
      </trkpt>
      <trkpt lat="48.03866" lon="4.91864">
        <time>2015-05-13T00:19:31Z</time>
      </trkpt>
      <trkpt lat="48.0391" lon="4.9186">
        <time>2015-05-13T00:19:35Z</time>
      </trkpt>
      <trkpt lat="48.03956" lon="4.91853">
        <time>2015-05-13T00:19:39Z</time>
      </trkpt>
      <trkpt lat="48.03984" lon="4.91853">
        <time>2015-05-13T00:19:41Z</time>
      </trkpt>
      <trkpt lat="48.03999" lon="4.91858">
        <time>2015-05-13T00:19:43Z</time>
      </trkpt>
      <trkpt lat="48.04007" lon="4.91861">
        <time>2015-05-13T00:19:43Z</time>
      </trkpt>
      <trkpt lat="48.04017" lon="4.91851">
        <time>2015-05-13T00:19:44Z</time>
      </trkpt>
      <trkpt lat="48.04024" lon="4.91847">
        <time>2015-05-13T00:19:45Z</time>
      </trkpt>
      <trkpt lat="48.04061" lon="4.91838">
        <time>2015-05-13T00:19:48Z</time>
      </trkpt>
      <trkpt lat="48.04087" lon="4.91833">
        <time>2015-05-13T00:19:50Z</time>
      </trkpt>
      <trkpt lat="48.04131" lon="4.91828">
        <time>2015-05-13T00:19:54Z</time>
      </trkpt>
      <trkpt lat="48.04144" lon="4.91828">
        <time>2015-05-13T00:19:55Z</time>
      </trkpt>
      <trkpt lat="48.04151" lon="4.91832">
        <time>2015-05-13T00:19:56Z</time>
      </trkpt>
      <trkpt lat="48.04165" lon="4.91853">
        <time>2015-05-13T00:19:57Z</time>
      </trkpt>
      <trkpt lat="48.04174" lon="4.91861">
        <time>2015-05-13T00:19:58Z</time>
      </trkpt>
      <trkpt lat="48.04185" lon="4.91861">
        <time>2015-05-13T00:19:59Z</time>
      </trkpt>
      <trkpt lat="48.042" lon="4.91849">
        <time>2015-05-13T00:20:01Z</time>
      </trkpt>
      <trkpt lat="48.04209" lon="4.91841">
        <time>2015-05-13T00:20:02Z</time>
      </trkpt>
      <trkpt lat="48.04241" lon="4.91831">
        <time>2015-05-13T00:20:04Z</time>
      </trkpt>
      <trkpt lat="48.04289" lon="4.91814">
        <time>2015-05-13T00:20:09Z</time>
      </trkpt>
      <trkpt lat="48.04334" lon="4.91794">
        <time>2015-05-13T00:20:13Z</time>
      </trkpt>
      <trkpt lat="48.04539" lon="4.91701">
        <time>2015-05-13T00:20:31Z</time>
      </trkpt>
      <trkpt lat="48.04674" lon="4.91635">
        <time>2015-05-13T00:20:43Z</time>
      </trkpt>
      <trkpt lat="48.04674" lon="4.91635">
        <time>2015-05-13T00:20:43Z</time>
      </trkpt>
      <trkpt lat="48.04708" lon="4.91621">
        <time>2015-05-13T00:20:46Z</time>
      </trkpt>
      <trkpt lat="48.04725" lon="4.91616">
        <time>2015-05-13T00:20:47Z</time>
      </trkpt>
      <trkpt lat="48.04738" lon="4.91614">
        <time>2015-05-13T00:20:48Z</time>
      </trkpt>
      <trkpt lat="48.04769" lon="4.91615">
        <time>2015-05-13T00:20:51Z</time>
      </trkpt>
      <trkpt lat="48.04832" lon="4.91626">
        <time>2015-05-13T00:20:56Z</time>
      </trkpt>
      <trkpt lat="48.04854" lon="4.91631">
        <time>2015-05-13T00:20:58Z</time>
      </trkpt>
      <trkpt lat="48.04872" lon="4.91633">
        <time>2015-05-13T00:21:00Z</time>
      </trkpt>
      <trkpt lat="48.04945" lon="4.91625">
        <time>2015-05-13T00:21:06Z</time>
      </trkpt>
      <trkpt lat="48.05043" lon="4.916">
        <time>2015-05-13T00:21:14Z</time>
      </trkpt>
      <trkpt lat="48.05145" lon="4.9157">
        <time>2015-05-13T00:21:23Z</time>
      </trkpt>
      <trkpt lat="48.05155" lon="4.91562">
        <time>2015-05-13T00:21:24Z</time>
      </trkpt>
      <trkpt lat="48.05161" lon="4.91553">
        <time>2015-05-13T00:21:25Z</time>
      </trkpt>
      <trkpt lat="48.05167" lon="4.91544">
        <time>2015-05-13T00:21:25Z</time>
      </trkpt>
      <trkpt lat="48.05173" lon="4.91525">
        <time>2015-05-13T00:21:27Z</time>
      </trkpt>
      <trkpt lat="48.05178" lon="4.91506">
        <time>2015-05-13T00:21:28Z</time>
      </trkpt>
      <trkpt lat="48.0519" lon="4.91454">
        <time>2015-05-13T00:21:31Z</time>
      </trkpt>
      <trkpt lat="48.05198" lon="4.91384">
        <time>2015-05-13T00:21:35Z</time>
      </trkpt>
      <trkpt lat="48.052" lon="4.91329">
        <time>2015-05-13T00:21:38Z</time>
      </trkpt>
      <trkpt lat="48.05195" lon="4.91256">
        <time>2015-05-13T00:21:42Z</time>
      </trkpt>
      <trkpt lat="48.05194" lon="4.9124">
        <time>2015-05-13T00:21:43Z</time>
      </trkpt>
      <trkpt lat="48.052" lon="4.91235">
        <time>2015-05-13T00:21:44Z</time>
      </trkpt>
      <trkpt lat="48.05213" lon="4.91224">
        <time>2015-05-13T00:21:45Z</time>
      </trkpt>
      <trkpt lat="48.05242" lon="4.91198">
        <time>2015-05-13T00:21:48Z</time>
      </trkpt>
      <trkpt lat="48.05297" lon="4.91154">
        <time>2015-05-13T00:21:53Z</time>
      </trkpt>
      <trkpt lat="48.05306" lon="4.91141">
        <time>2015-05-13T00:21:54Z</time>
      </trkpt>
      <trkpt lat="48.05314" lon="4.91127">
        <time>2015-05-13T00:21:55Z</time>
      </trkpt>
      <trkpt lat="48.05323" lon="4.91106">
        <time>2015-05-13T00:21:56Z</time>
      </trkpt>
      <trkpt lat="48.05358" lon="4.91003">
        <time>2015-05-13T00:22:03Z</time>
      </trkpt>
      <trkpt lat="48.05402" lon="4.90902">
        <time>2015-05-13T00:22:10Z</time>
      </trkpt>
      <trkpt lat="48.05423" lon="4.90856">
        <time>2015-05-13T00:22:13Z</time>
      </trkpt>
      <trkpt lat="48.05423" lon="4.90856">
        <time>2015-05-13T00:22:13Z</time>
      </trkpt>
      <trkpt lat="48.05434" lon="4.90834">
        <time>2015-05-13T00:22:15Z</time>
      </trkpt>
      <trkpt lat="48.0537" lon="4.90701">
        <time>2015-05-13T00:22:24Z</time>
      </trkpt>
      <trkpt lat="48.05324" lon="4.90602">
        <time>2015-05-13T00:22:31Z</time>
      </trkpt>
      <trkpt lat="48.05319" lon="4.90585">
        <time>2015-05-13T00:22:32Z</time>
      </trkpt>
      <trkpt lat="48.05318" lon="4.90572">
        <time>2015-05-13T00:22:32Z</time>
      </trkpt>
      <trkpt lat="48.05319" lon="4.90554">
        <time>2015-05-13T00:22:33Z</time>
      </trkpt>
      <trkpt lat="48.05343" lon="4.90504">
        <time>2015-05-13T00:22:37Z</time>
      </trkpt>
      <trkpt lat="48.05387" lon="4.90415">
        <time>2015-05-13T00:22:43Z</time>
      </trkpt>
      <trkpt lat="48.05399" lon="4.90384">
        <time>2015-05-13T00:22:45Z</time>
      </trkpt>
      <trkpt lat="48.05412" lon="4.90335">
        <time>2015-05-13T00:22:48Z</time>
      </trkpt>
      <trkpt lat="48.05419" lon="4.90265">
        <time>2015-05-13T00:22:52Z</time>
      </trkpt>
      <trkpt lat="48.0542" lon="4.90236">
        <time>2015-05-13T00:22:54Z</time>
      </trkpt>
      <trkpt lat="48.05418" lon="4.90213">
        <time>2015-05-13T00:22:55Z</time>
      </trkpt>
      <trkpt lat="48.05408" lon="4.90156">
        <time>2015-05-13T00:22:58Z</time>
      </trkpt>
      <trkpt lat="48.05402" lon="4.90114">
        <time>2015-05-13T00:23:01Z</time>
      </trkpt>
      <trkpt lat="48.05412" lon="4.90046">
        <time>2015-05-13T00:23:05Z</time>
      </trkpt>
      <trkpt lat="48.05431" lon="4.89949">
        <time>2015-05-13T00:23:11Z</time>
      </trkpt>
      <trkpt lat="48.05432" lon="4.89934">
        <time>2015-05-13T00:23:11Z</time>
      </trkpt>
      <trkpt lat="48.05432" lon="4.89925">
        <time>2015-05-13T00:23:12Z</time>
      </trkpt>
      <trkpt lat="48.05426" lon="4.89929">
        <time>2015-05-13T00:23:12Z</time>
      </trkpt>
      <trkpt lat="48.05426" lon="4.89929">
        <time>2015-05-13T00:23:12Z</time>
      </trkpt>
      <trkpt lat="48.05526" lon="4.89867">
        <time>2015-05-13T00:23:22Z</time>
      </trkpt>
      <trkpt lat="48.05568" lon="4.89838">
        <time>2015-05-13T00:23:25Z</time>
      </trkpt>
      <trkpt lat="48.05645" lon="4.89789">
        <time>2015-05-13T00:23:33Z</time>
      </trkpt>
      <trkpt lat="48.05739" lon="4.8973">
        <time>2015-05-13T00:23:41Z</time>
      </trkpt>
      <trkpt lat="48.05898" lon="4.89628">
        <time>2015-05-13T00:23:56Z</time>
      </trkpt>
      <trkpt lat="48.06214" lon="4.89427">
        <time>2015-05-13T00:24:25Z</time>
      </trkpt>
      <trkpt lat="48.06565" lon="4.89203">
        <time>2015-05-13T00:24:57Z</time>
      </trkpt>
      <trkpt lat="48.06707" lon="4.89111">
        <time>2015-05-13T00:25:10Z</time>
      </trkpt>
      <trkpt lat="48.06738" lon="4.89092">
        <time>2015-05-13T00:25:13Z</time>
      </trkpt>
      <trkpt lat="48.06773" lon="4.89076">
        <time>2015-05-13T00:25:16Z</time>
      </trkpt>
      <trkpt lat="48.06916" lon="4.89033">
        <time>2015-05-13T00:25:28Z</time>
      </trkpt>
      <trkpt lat="48.0707" lon="4.88987">
        <time>2015-05-13T00:25:42Z</time>
      </trkpt>
      <trkpt lat="48.07222" lon="4.88939">
        <time>2015-05-13T00:25:55Z</time>
      </trkpt>
      <trkpt lat="48.07298" lon="4.88914">
        <time>2015-05-13T00:26:01Z</time>
      </trkpt>
      <trkpt lat="48.07373" lon="4.88891">
        <time>2015-05-13T00:26:08Z</time>
      </trkpt>
      <trkpt lat="48.07408" lon="4.88887">
        <time>2015-05-13T00:26:11Z</time>
      </trkpt>
      <trkpt lat="48.07433" lon="4.88888">
        <time>2015-05-13T00:26:13Z</time>
      </trkpt>
      <trkpt lat="48.07472" lon="4.88896">
        <time>2015-05-13T00:26:16Z</time>
      </trkpt>
      <trkpt lat="48.07575" lon="4.88932">
        <time>2015-05-13T00:26:25Z</time>
      </trkpt>
      <trkpt lat="48.07575" lon="4.88932">
        <time>2015-05-13T00:26:25Z</time>
      </trkpt>
      <trkpt lat="48.07719" lon="4.8898">
        <time>2015-05-13T00:26:38Z</time>
      </trkpt>
      <trkpt lat="48.07819" lon="4.89016">
        <time>2015-05-13T00:26:46Z</time>
      </trkpt>
      <trkpt lat="48.07917" lon="4.89049">
        <time>2015-05-13T00:26:55Z</time>
      </trkpt>
      <trkpt lat="48.07944" lon="4.89056">
        <time>2015-05-13T00:26:57Z</time>
      </trkpt>
      <trkpt lat="48.07974" lon="4.89057">
        <time>2015-05-13T00:27:00Z</time>
      </trkpt>
      <trkpt lat="48.08072" lon="4.89057">
        <time>2015-05-13T00:27:08Z</time>
      </trkpt>
      <trkpt lat="48.08096" lon="4.89059">
        <time>2015-05-13T00:27:10Z</time>
      </trkpt>
      <trkpt lat="48.08115" lon="4.89064">
        <time>2015-05-13T00:27:12Z</time>
      </trkpt>
      <trkpt lat="48.08188" lon="4.89088">
        <time>2015-05-13T00:27:18Z</time>
      </trkpt>
      <trkpt lat="48.08221" lon="4.89097">
        <time>2015-05-13T00:27:21Z</time>
      </trkpt>
      <trkpt lat="48.08245" lon="4.89096">
        <time>2015-05-13T00:27:23Z</time>
      </trkpt>
      <trkpt lat="48.0825" lon="4.89104">
        <time>2015-05-13T00:27:24Z</time>
      </trkpt>
      <trkpt lat="48.08272" lon="4.8912">
        <time>2015-05-13T00:27:26Z</time>
      </trkpt>
      <trkpt lat="48.08305" lon="4.89139">
        <time>2015-05-13T00:27:29Z</time>
      </trkpt>
      <trkpt lat="48.08326" lon="4.89153">
        <time>2015-05-13T00:27:31Z</time>
      </trkpt>
      <trkpt lat="48.08341" lon="4.89159">
        <time>2015-05-13T00:27:32Z</time>
      </trkpt>
      <trkpt lat="48.08346" lon="4.8918">
        <time>2015-05-13T00:27:33Z</time>
      </trkpt>
      <trkpt lat="48.08356" lon="4.89212">
        <time>2015-05-13T00:27:35Z</time>
      </trkpt>
      <trkpt lat="48.08367" lon="4.8925">
        <time>2015-05-13T00:27:37Z</time>
      </trkpt>
      <trkpt lat="48.08382" lon="4.893">
        <time>2015-05-13T00:27:41Z</time>
      </trkpt>
      <trkpt lat="48.0839" lon="4.89326">
        <time>2015-05-13T00:27:42Z</time>
      </trkpt>
      <trkpt lat="48.08404" lon="4.89353">
        <time>2015-05-13T00:27:44Z</time>
      </trkpt>
      <trkpt lat="48.08423" lon="4.89372">
        <time>2015-05-13T00:27:46Z</time>
      </trkpt>
      <trkpt lat="48.08442" lon="4.89393">
        <time>2015-05-13T00:27:48Z</time>
      </trkpt>
      <trkpt lat="48.08448" lon="4.894">
        <time>2015-05-13T00:27:49Z</time>
      </trkpt>
      <trkpt lat="48.08459" lon="4.89421">
        <time>2015-05-13T00:27:50Z</time>
      </trkpt>
      <trkpt lat="48.0847" lon="4.89457">
        <time>2015-05-13T00:27:52Z</time>
      </trkpt>
      <trkpt lat="48.08475" lon="4.89497">
        <time>2015-05-13T00:27:55Z</time>
      </trkpt>
      <trkpt lat="48.08479" lon="4.89598">
        <time>2015-05-13T00:28:00Z</time>
      </trkpt>
      <trkpt lat="48.0848" lon="4.89646">
        <time>2015-05-13T00:28:03Z</time>
      </trkpt>
      <trkpt lat="48.08484" lon="4.89692">
        <time>2015-05-13T00:28:06Z</time>
      </trkpt>
      <trkpt lat="48.08491" lon="4.8974">
        <time>2015-05-13T00:28:08Z</time>
      </trkpt>
      <trkpt lat="48.08503" lon="4.89788">
        <time>2015-05-13T00:28:11Z</time>
      </trkpt>
      <trkpt lat="48.08536" lon="4.89884">
        <time>2015-05-13T00:28:17Z</time>
      </trkpt>
      <trkpt lat="48.0855" lon="4.89932">
        <time>2015-05-13T00:28:20Z</time>
      </trkpt>
      <trkpt lat="48.08557" lon="4.89968">
        <time>2015-05-13T00:28:23Z</time>
      </trkpt>
      <trkpt lat="48.08557" lon="4.89968">
        <time>2015-05-13T00:28:23Z</time>
      </trkpt>
      <trkpt lat="48.08562" lon="4.9001">
        <time>2015-05-13T00:28:25Z</time>
      </trkpt>
      <trkpt lat="48.08565" lon="4.90079">
        <time>2015-05-13T00:28:29Z</time>
      </trkpt>
      <trkpt lat="48.08562" lon="4.90193">
        <time>2015-05-13T00:28:35Z</time>
      </trkpt>
      <trkpt lat="48.08554" lon="4.90308">
        <time>2015-05-13T00:28:42Z</time>
      </trkpt>
      <trkpt lat="48.08535" lon="4.90443">
        <time>2015-05-13T00:28:50Z</time>
      </trkpt>
      <trkpt lat="48.0851" lon="4.90624">
        <time>2015-05-13T00:29:00Z</time>
      </trkpt>
      <trkpt lat="48.08495" lon="4.9076">
        <time>2015-05-13T00:29:08Z</time>
      </trkpt>
      <trkpt lat="48.08483" lon="4.90851">
        <time>2015-05-13T00:29:13Z</time>
      </trkpt>
      <trkpt lat="48.08465" lon="4.90971">
        <time>2015-05-13T00:29:20Z</time>
      </trkpt>
      <trkpt lat="48.08445" lon="4.91075">
        <time>2015-05-13T00:29:26Z</time>
      </trkpt>
      <trkpt lat="48.0842" lon="4.91193">
        <time>2015-05-13T00:29:33Z</time>
      </trkpt>
      <trkpt lat="48.08398" lon="4.91277">
        <time>2015-05-13T00:29:38Z</time>
      </trkpt>
      <trkpt lat="48.08375" lon="4.91357">
        <time>2015-05-13T00:29:43Z</time>
      </trkpt>
      <trkpt lat="48.08357" lon="4.91406">
        <time>2015-05-13T00:29:46Z</time>
      </trkpt>
      <trkpt lat="48.0832" lon="4.91493">
        <time>2015-05-13T00:29:52Z</time>
      </trkpt>
      <trkpt lat="48.08293" lon="4.91572">
        <time>2015-05-13T00:29:57Z</time>
      </trkpt>
      <trkpt lat="48.08264" lon="4.91659">
        <time>2015-05-13T00:30:03Z</time>
      </trkpt>
      <trkpt lat="48.0819" lon="4.91839">
        <time>2015-05-13T00:30:15Z</time>
      </trkpt>
      <trkpt lat="48.0815" lon="4.91937">
        <time>2015-05-13T00:30:21Z</time>
      </trkpt>
      <trkpt lat="48.081" lon="4.92076">
        <time>2015-05-13T00:30:30Z</time>
      </trkpt>
      <trkpt lat="48.08078" lon="4.92147">
        <time>2015-05-13T00:30:34Z</time>
      </trkpt>
      <trkpt lat="48.08067" lon="4.92204">
        <time>2015-05-13T00:30:38Z</time>
      </trkpt>
      <trkpt lat="48.0806" lon="4.92289">
        <time>2015-05-13T00:30:43Z</time>
      </trkpt>
      <trkpt lat="48.08061" lon="4.92453">
        <time>2015-05-13T00:30:52Z</time>
      </trkpt>
      <trkpt lat="48.08058" lon="4.92538">
        <time>2015-05-13T00:30:57Z</time>
      </trkpt>
      <trkpt lat="48.08058" lon="4.9255">
        <time>2015-05-13T00:30:57Z</time>
      </trkpt>
      <trkpt lat="48.0806" lon="4.92558">
        <time>2015-05-13T00:30:58Z</time>
      </trkpt>
      <trkpt lat="48.08065" lon="4.92566">
        <time>2015-05-13T00:30:58Z</time>
      </trkpt>
      <trkpt lat="48.08075" lon="4.92573">
        <time>2015-05-13T00:30:59Z</time>
      </trkpt>
      <trkpt lat="48.08079" lon="4.92576">
        <time>2015-05-13T00:31:00Z</time>
      </trkpt>
      <trkpt lat="48.08082" lon="4.92581">
        <time>2015-05-13T00:31:00Z</time>
      </trkpt>
      <trkpt lat="48.08081" lon="4.92623">
        <time>2015-05-13T00:31:03Z</time>
      </trkpt>
      <trkpt lat="48.08081" lon="4.92647">
        <time>2015-05-13T00:31:04Z</time>
      </trkpt>
      <trkpt lat="48.08078" lon="4.92668">
        <time>2015-05-13T00:31:05Z</time>
      </trkpt>
      <trkpt lat="48.08063" lon="4.92694">
        <time>2015-05-13T00:31:07Z</time>
      </trkpt>
      <trkpt lat="48.08063" lon="4.92694">
        <time>2015-05-13T00:31:07Z</time>
      </trkpt>
      <trkpt lat="48.08078" lon="4.92668">
        <time>2015-05-13T00:31:09Z</time>
      </trkpt>
      <trkpt lat="48.08081" lon="4.92647">
        <time>2015-05-13T00:31:10Z</time>
      </trkpt>
      <trkpt lat="48.08082" lon="4.92593">
        <time>2015-05-13T00:31:13Z</time>
      </trkpt>
      <trkpt lat="48.08082" lon="4.92581">
        <time>2015-05-13T00:31:14Z</time>
      </trkpt>
      <trkpt lat="48.08081" lon="4.92577">
        <time>2015-05-13T00:31:14Z</time>
      </trkpt>
      <trkpt lat="48.08091" lon="4.9257">
        <time>2015-05-13T00:31:15Z</time>
      </trkpt>
      <trkpt lat="48.08101" lon="4.92562">
        <time>2015-05-13T00:31:16Z</time>
      </trkpt>
      <trkpt lat="48.08109" lon="4.92564">
        <time>2015-05-13T00:31:17Z</time>
      </trkpt>
      <trkpt lat="48.08182" lon="4.92609">
        <time>2015-05-13T00:31:23Z</time>
      </trkpt>
      <trkpt lat="48.08233" lon="4.92641">
        <time>2015-05-13T00:31:28Z</time>
      </trkpt>
      <trkpt lat="48.08239" lon="4.92645">
        <time>2015-05-13T00:31:29Z</time>
      </trkpt>
      <trkpt lat="48.08263" lon="4.92578">
        <time>2015-05-13T00:31:33Z</time>
      </trkpt>
      <trkpt lat="48.08277" lon="4.92538">
        <time>2015-05-13T00:31:35Z</time>
      </trkpt>
      <trkpt lat="48.08288" lon="4.92488">
        <time>2015-05-13T00:31:38Z</time>
      </trkpt>
      <trkpt lat="48.08298" lon="4.92439">
        <time>2015-05-13T00:31:41Z</time>
      </trkpt>
      <trkpt lat="48.08311" lon="4.92395">
        <time>2015-05-13T00:31:44Z</time>
      </trkpt>
      <trkpt lat="48.08316" lon="4.92381">
        <time>2015-05-13T00:31:45Z</time>
      </trkpt>
      <trkpt lat="48.08332" lon="4.92381">
        <time>2015-05-13T00:31:46Z</time>
      </trkpt>
      <trkpt lat="48.084" lon="4.92401">
        <time>2015-05-13T00:31:52Z</time>
      </trkpt>
      <trkpt lat="48.08514" lon="4.92432">
        <time>2015-05-13T00:32:02Z</time>
      </trkpt>
      <trkpt lat="48.08531" lon="4.92433">
        <time>2015-05-13T00:32:03Z</time>
      </trkpt>
      <trkpt lat="48.08537" lon="4.92432">
        <time>2015-05-13T00:32:04Z</time>
      </trkpt>
      <trkpt lat="48.08537" lon="4.92432">
        <time>2015-05-13T00:32:04Z</time>
      </trkpt>
      <trkpt lat="48.08546" lon="4.92431">
        <time>2015-05-13T00:32:05Z</time>
      </trkpt>
      <trkpt lat="48.08575" lon="4.92417">
        <time>2015-05-13T00:32:07Z</time>
      </trkpt>
      <trkpt lat="48.08608" lon="4.92397">
        <time>2015-05-13T00:32:10Z</time>
      </trkpt>
      <trkpt lat="48.08637" lon="4.92361">
        <time>2015-05-13T00:32:13Z</time>
      </trkpt>
      <trkpt lat="48.08669" lon="4.92301">
        <time>2015-05-13T00:32:18Z</time>
      </trkpt>
      <trkpt lat="48.08696" lon="4.92245">
        <time>2015-05-13T00:32:22Z</time>
      </trkpt>
      <trkpt lat="48.08715" lon="4.92212">
        <time>2015-05-13T00:32:24Z</time>
      </trkpt>
      <trkpt lat="48.08792" lon="4.92093">
        <time>2015-05-13T00:32:33Z</time>
      </trkpt>
      <trkpt lat="48.08854" lon="4.92014">
        <time>2015-05-13T00:32:40Z</time>
      </trkpt>
      <trkpt lat="48.08866" lon="4.92001">
        <time>2015-05-13T00:32:42Z</time>
      </trkpt>
      <trkpt lat="48.08938" lon="4.91934">
        <time>2015-05-13T00:32:49Z</time>
      </trkpt>
      <trkpt lat="48.08961" lon="4.91903">
        <time>2015-05-13T00:32:51Z</time>
      </trkpt>
      <trkpt lat="48.09016" lon="4.91786">
        <time>2015-05-13T00:32:59Z</time>
      </trkpt>
      <trkpt lat="48.09097" lon="4.91635">
        <time>2015-05-13T00:33:10Z</time>
      </trkpt>
      <trkpt lat="48.09152" lon="4.91532">
        <time>2015-05-13T00:33:18Z</time>
      </trkpt>
      <trkpt lat="48.09163" lon="4.915">
        <time>2015-05-13T00:33:20Z</time>
      </trkpt>
      <trkpt lat="48.09186" lon="4.91351">
        <time>2015-05-13T00:33:29Z</time>
      </trkpt>
      <trkpt lat="48.09196" lon="4.91307">
        <time>2015-05-13T00:33:31Z</time>
      </trkpt>
      <trkpt lat="48.09215" lon="4.9126">
        <time>2015-05-13T00:33:34Z</time>
      </trkpt>
      <trkpt lat="48.09319" lon="4.91055">
        <time>2015-05-13T00:33:49Z</time>
      </trkpt>
      <trkpt lat="48.09393" lon="4.90903">
        <time>2015-05-13T00:33:59Z</time>
      </trkpt>
      <trkpt lat="48.09471" lon="4.90735">
        <time>2015-05-13T00:34:11Z</time>
      </trkpt>
      <trkpt lat="48.09528" lon="4.90615">
        <time>2015-05-13T00:34:19Z</time>
      </trkpt>
      <trkpt lat="48.09549" lon="4.90575">
        <time>2015-05-13T00:34:22Z</time>
      </trkpt>
      <trkpt lat="48.09575" lon="4.90533">
        <time>2015-05-13T00:34:25Z</time>
      </trkpt>
      <trkpt lat="48.09582" lon="4.90524">
        <time>2015-05-13T00:34:26Z</time>
      </trkpt>
      <trkpt lat="48.09656" lon="4.9047">
        <time>2015-05-13T00:34:33Z</time>
      </trkpt>
      <trkpt lat="48.09736" lon="4.90404">
        <time>2015-05-13T00:34:41Z</time>
      </trkpt>
      <trkpt lat="48.09749" lon="4.90375">
        <time>2015-05-13T00:34:43Z</time>
      </trkpt>
      <trkpt lat="48.09778" lon="4.90316">
        <time>2015-05-13T00:34:47Z</time>
      </trkpt>
      <trkpt lat="48.09816" lon="4.90267">
        <time>2015-05-13T00:34:51Z</time>
      </trkpt>
      <trkpt lat="48.09845" lon="4.90236">
        <time>2015-05-13T00:34:54Z</time>
      </trkpt>
      <trkpt lat="48.09887" lon="4.90204">
        <time>2015-05-13T00:34:58Z</time>
      </trkpt>
      <trkpt lat="48.09971" lon="4.90135">
        <time>2015-05-13T00:35:06Z</time>
      </trkpt>
      <trkpt lat="48.09991" lon="4.90113">
        <time>2015-05-13T00:35:08Z</time>
      </trkpt>
      <trkpt lat="48.10002" lon="4.90096">
        <time>2015-05-13T00:35:10Z</time>
      </trkpt>
      <trkpt lat="48.10017" lon="4.9006">
        <time>2015-05-13T00:35:12Z</time>
      </trkpt>
      <trkpt lat="48.10038" lon="4.89984">
        <time>2015-05-13T00:35:17Z</time>
      </trkpt>
      <trkpt lat="48.10044" lon="4.89964">
        <time>2015-05-13T00:35:18Z</time>
      </trkpt>
      <trkpt lat="48.10052" lon="4.8995">
        <time>2015-05-13T00:35:19Z</time>
      </trkpt>
      <trkpt lat="48.10069" lon="4.89931">
        <time>2015-05-13T00:35:21Z</time>
      </trkpt>
      <trkpt lat="48.10082" lon="4.89922">
        <time>2015-05-13T00:35:22Z</time>
      </trkpt>
      <trkpt lat="48.10142" lon="4.899">
        <time>2015-05-13T00:35:27Z</time>
      </trkpt>
      <trkpt lat="48.10172" lon="4.89878">
        <time>2015-05-13T00:35:30Z</time>
      </trkpt>
      <trkpt lat="48.10227" lon="4.89815">
        <time>2015-05-13T00:35:36Z</time>
      </trkpt>
      <trkpt lat="48.1028" lon="4.89764">
        <time>2015-05-13T00:35:41Z</time>
      </trkpt>
      <trkpt lat="48.1034" lon="4.89723">
        <time>2015-05-13T00:35:47Z</time>
      </trkpt>
      <trkpt lat="48.10393" lon="4.89695">
        <time>2015-05-13T00:35:52Z</time>
      </trkpt>
      <trkpt lat="48.10441" lon="4.89675">
        <time>2015-05-13T00:35:56Z</time>
      </trkpt>
      <trkpt lat="48.10645" lon="4.89614">
        <time>2015-05-13T00:36:13Z</time>
      </trkpt>
      <trkpt lat="48.10659" lon="4.89607">
        <time>2015-05-13T00:36:15Z</time>
      </trkpt>
      <trkpt lat="48.10676" lon="4.89595">
        <time>2015-05-13T00:36:16Z</time>
      </trkpt>
      <trkpt lat="48.10729" lon="4.89552">
        <time>2015-05-13T00:36:21Z</time>
      </trkpt>
      <trkpt lat="48.10778" lon="4.89509">
        <time>2015-05-13T00:36:26Z</time>
      </trkpt>
      <trkpt lat="48.10815" lon="4.89473">
        <time>2015-05-13T00:36:30Z</time>
      </trkpt>
      <trkpt lat="48.10813" lon="4.89468">
        <time>2015-05-13T00:36:30Z</time>
      </trkpt>
      <trkpt lat="48.10813" lon="4.89468">
        <time>2015-05-13T00:36:30Z</time>
      </trkpt>
      <trkpt lat="48.10815" lon="4.89473">
        <time>2015-05-13T00:36:31Z</time>
      </trkpt>
      <trkpt lat="48.10825" lon="4.89462">
        <time>2015-05-13T00:36:32Z</time>
      </trkpt>
      <trkpt lat="48.10831" lon="4.89448">
        <time>2015-05-13T00:36:33Z</time>
      </trkpt>
      <trkpt lat="48.10843" lon="4.8939">
        <time>2015-05-13T00:36:36Z</time>
      </trkpt>
      <trkpt lat="48.10863" lon="4.89317">
        <time>2015-05-13T00:36:40Z</time>
      </trkpt>
      <trkpt lat="48.10869" lon="4.89293">
        <time>2015-05-13T00:36:42Z</time>
      </trkpt>
      <trkpt lat="48.10878" lon="4.89274">
        <time>2015-05-13T00:36:43Z</time>
      </trkpt>
      <trkpt lat="48.11014" lon="4.89052">
        <time>2015-05-13T00:37:00Z</time>
      </trkpt>
      <trkpt lat="48.11052" lon="4.88999">
        <time>2015-05-13T00:37:05Z</time>
      </trkpt>
      <trkpt lat="48.11086" lon="4.88961">
        <time>2015-05-13T00:37:08Z</time>
      </trkpt>
      <trkpt lat="48.11118" lon="4.8893">
        <time>2015-05-13T00:37:11Z</time>
      </trkpt>
      <trkpt lat="48.11144" lon="4.88908">
        <time>2015-05-13T00:37:14Z</time>
      </trkpt>
      <trkpt lat="48.11192" lon="4.88874">
        <time>2015-05-13T00:37:18Z</time>
      </trkpt>
      <trkpt lat="48.1126" lon="4.88831">
        <time>2015-05-13T00:37:25Z</time>
      </trkpt>
      <trkpt lat="48.11317" lon="4.88797">
        <time>2015-05-13T00:37:30Z</time>
      </trkpt>
      <trkpt lat="48.11361" lon="4.88776">
        <time>2015-05-13T00:37:34Z</time>
      </trkpt>
      <trkpt lat="48.11385" lon="4.88766">
        <time>2015-05-13T00:37:36Z</time>
      </trkpt>
      <trkpt lat="48.1141" lon="4.8876">
        <time>2015-05-13T00:37:38Z</time>
      </trkpt>
      <trkpt lat="48.11472" lon="4.88747">
        <time>2015-05-13T00:37:43Z</time>
      </trkpt>
      <trkpt lat="48.11472" lon="4.88747">
        <time>2015-05-13T00:37:43Z</time>
      </trkpt>
      <trkpt lat="48.11476" lon="4.88746">
        <time>2015-05-13T00:37:44Z</time>
      </trkpt>
      <trkpt lat="48.11474" lon="4.88731">
        <time>2015-05-13T00:37:44Z</time>
      </trkpt>
      <trkpt lat="48.11454" lon="4.8867">
        <time>2015-05-13T00:37:48Z</time>
      </trkpt>
      <trkpt lat="48.11372" lon="4.88446">
        <time>2015-05-13T00:38:03Z</time>
      </trkpt>
      <trkpt lat="48.11365" lon="4.88414">
        <time>2015-05-13T00:38:05Z</time>
      </trkpt>
      <trkpt lat="48.11357" lon="4.88377">
        <time>2015-05-13T00:38:07Z</time>
      </trkpt>
      <trkpt lat="48.1134" lon="4.88323">
        <time>2015-05-13T00:38:10Z</time>
      </trkpt>
      <trkpt lat="48.11307" lon="4.88234">
        <time>2015-05-13T00:38:16Z</time>
      </trkpt>
      <trkpt lat="48.11287" lon="4.88195">
        <time>2015-05-13T00:38:19Z</time>
      </trkpt>
      <trkpt lat="48.11271" lon="4.8817">
        <time>2015-05-13T00:38:21Z</time>
      </trkpt>
      <trkpt lat="48.11251" lon="4.88132">
        <time>2015-05-13T00:38:23Z</time>
      </trkpt>
      <trkpt lat="48.1123" lon="4.88069">
        <time>2015-05-13T00:38:27Z</time>
      </trkpt>
      <trkpt lat="48.11218" lon="4.88027">
        <time>2015-05-13T00:38:30Z</time>
      </trkpt>
      <trkpt lat="48.11218" lon="4.88014">
        <time>2015-05-13T00:38:31Z</time>
      </trkpt>
      <trkpt lat="48.11211" lon="4.8801">
        <time>2015-05-13T00:38:31Z</time>
      </trkpt>
      <trkpt lat="48.112" lon="4.87999">
        <time>2015-05-13T00:38:32Z</time>
      </trkpt>
      <trkpt lat="48.11123" lon="4.87914">
        <time>2015-05-13T00:38:41Z</time>
      </trkpt>
      <trkpt lat="48.11078" lon="4.87859">
        <time>2015-05-13T00:38:45Z</time>
      </trkpt>
      <trkpt lat="48.11037" lon="4.87803">
        <time>2015-05-13T00:38:50Z</time>
      </trkpt>
      <trkpt lat="48.10999" lon="4.87742">
        <time>2015-05-13T00:38:55Z</time>
      </trkpt>
      <trkpt lat="48.10961" lon="4.87683">
        <time>2015-05-13T00:38:59Z</time>
      </trkpt>
      <trkpt lat="48.10953" lon="4.87669">
        <time>2015-05-13T00:39:00Z</time>
      </trkpt>
      <trkpt lat="48.10953" lon="4.87657">
        <time>2015-05-13T00:39:01Z</time>
      </trkpt>
      <trkpt lat="48.10954" lon="4.87631">
        <time>2015-05-13T00:39:03Z</time>
      </trkpt>
      <trkpt lat="48.10956" lon="4.87586">
        <time>2015-05-13T00:39:05Z</time>
      </trkpt>
      <trkpt lat="48.10957" lon="4.87551">
        <time>2015-05-13T00:39:07Z</time>
      </trkpt>
      <trkpt lat="48.10954" lon="4.87532">
        <time>2015-05-13T00:39:08Z</time>
      </trkpt>
      <trkpt lat="48.10948" lon="4.87514">
        <time>2015-05-13T00:39:09Z</time>
      </trkpt>
      <trkpt lat="48.10941" lon="4.875">
        <time>2015-05-13T00:39:10Z</time>
      </trkpt>
      <trkpt lat="48.10931" lon="4.87481">
        <time>2015-05-13T00:39:12Z</time>
      </trkpt>
      <trkpt lat="48.10897" lon="4.87424">
        <time>2015-05-13T00:39:16Z</time>
      </trkpt>
      <trkpt lat="48.10888" lon="4.87414">
        <time>2015-05-13T00:39:17Z</time>
      </trkpt>
      <trkpt lat="48.10887" lon="4.87413">
        <time>2015-05-13T00:39:17Z</time>
      </trkpt>
      <trkpt lat="48.10887" lon="4.87413">
        <time>2015-05-13T00:39:17Z</time>
      </trkpt>
      <trkpt lat="48.10882" lon="4.87409">
        <time>2015-05-13T00:39:18Z</time>
      </trkpt>
      <trkpt lat="48.10889" lon="4.87394">
        <time>2015-05-13T00:39:19Z</time>
      </trkpt>
      <trkpt lat="48.109" lon="4.87373">
        <time>2015-05-13T00:39:20Z</time>
      </trkpt>
      <trkpt lat="48.10923" lon="4.87335">
        <time>2015-05-13T00:39:23Z</time>
      </trkpt>
      <trkpt lat="48.10933" lon="4.8732">
        <time>2015-05-13T00:39:24Z</time>
      </trkpt>
      <trkpt lat="48.1095" lon="4.87304">
        <time>2015-05-13T00:39:26Z</time>
      </trkpt>
      <trkpt lat="48.10972" lon="4.87287">
        <time>2015-05-13T00:39:28Z</time>
      </trkpt>
      <trkpt lat="48.10996" lon="4.87271">
        <time>2015-05-13T00:39:30Z</time>
      </trkpt>
      <trkpt lat="48.11054" lon="4.87248">
        <time>2015-05-13T00:39:35Z</time>
      </trkpt>
      <trkpt lat="48.11071" lon="4.87249">
        <time>2015-05-13T00:39:37Z</time>
      </trkpt>
      <trkpt lat="48.11079" lon="4.87253">
        <time>2015-05-13T00:39:37Z</time>
      </trkpt>
      <trkpt lat="48.11087" lon="4.87259">
        <time>2015-05-13T00:39:38Z</time>
      </trkpt>
      <trkpt lat="48.1111" lon="4.8728">
        <time>2015-05-13T00:39:40Z</time>
      </trkpt>
      <trkpt lat="48.11117" lon="4.87284">
        <time>2015-05-13T00:39:41Z</time>
      </trkpt>
      <trkpt lat="48.11127" lon="4.87287">
        <time>2015-05-13T00:39:42Z</time>
      </trkpt>
      <trkpt lat="48.11152" lon="4.87291">
        <time>2015-05-13T00:39:44Z</time>
      </trkpt>
      <trkpt lat="48.11171" lon="4.87295">
        <time>2015-05-13T00:39:46Z</time>
      </trkpt>
      <trkpt lat="48.11181" lon="4.87299">
        <time>2015-05-13T00:39:47Z</time>
      </trkpt>
      <trkpt lat="48.11192" lon="4.87306">
        <time>2015-05-13T00:39:48Z</time>
      </trkpt>
      <trkpt lat="48.112" lon="4.87315">
        <time>2015-05-13T00:39:48Z</time>
      </trkpt>
      <trkpt lat="48.11203" lon="4.87321">
        <time>2015-05-13T00:39:49Z</time>
      </trkpt>
      <trkpt lat="48.11206" lon="4.87328">
        <time>2015-05-13T00:39:49Z</time>
      </trkpt>
      <trkpt lat="48.11221" lon="4.87345">
        <time>2015-05-13T00:39:51Z</time>
      </trkpt>
      <trkpt lat="48.1127" lon="4.87391">
        <time>2015-05-13T00:39:56Z</time>
      </trkpt>
      <trkpt lat="48.11329" lon="4.87435">
        <time>2015-05-13T00:40:01Z</time>
      </trkpt>
      <trkpt lat="48.11329" lon="4.87435">
        <time>2015-05-13T00:40:01Z</time>
      </trkpt>
      <trkpt lat="48.11343" lon="4.87444">
        <time>2015-05-13T00:40:03Z</time>
      </trkpt>
      <trkpt lat="48.11374" lon="4.8746">
        <time>2015-05-13T00:40:05Z</time>
      </trkpt>
      <trkpt lat="48.11395" lon="4.87466">
        <time>2015-05-13T00:40:07Z</time>
      </trkpt>
      <trkpt lat="48.11417" lon="4.8747">
        <time>2015-05-13T00:40:09Z</time>
      </trkpt>
      <trkpt lat="48.1146" lon="4.87474">
        <time>2015-05-13T00:40:13Z</time>
      </trkpt>
      <trkpt lat="48.11493" lon="4.87473">
        <time>2015-05-13T00:40:16Z</time>
      </trkpt>
      <trkpt lat="48.11516" lon="4.87471">
        <time>2015-05-13T00:40:18Z</time>
      </trkpt>
      <trkpt lat="48.11563" lon="4.87461">
        <time>2015-05-13T00:40:22Z</time>
      </trkpt>
      <trkpt lat="48.11611" lon="4.87443">
        <time>2015-05-13T00:40:26Z</time>
      </trkpt>
      <trkpt lat="48.11636" lon="4.87434">
        <time>2015-05-13T00:40:28Z</time>
      </trkpt>
      <trkpt lat="48.11663" lon="4.87428">
        <time>2015-05-13T00:40:30Z</time>
      </trkpt>
      <trkpt lat="48.11716" lon="4.87421">
        <time>2015-05-13T00:40:35Z</time>
      </trkpt>
      <trkpt lat="48.11771" lon="4.87412">
        <time>2015-05-13T00:40:39Z</time>
      </trkpt>
      <trkpt lat="48.11799" lon="4.87405">
        <time>2015-05-13T00:40:42Z</time>
      </trkpt>
      <trkpt lat="48.11828" lon="4.87394">
        <time>2015-05-13T00:40:44Z</time>
      </trkpt>
      <trkpt lat="48.11885" lon="4.87364">
        <time>2015-05-13T00:40:49Z</time>
      </trkpt>
      <trkpt lat="48.11912" lon="4.8735">
        <time>2015-05-13T00:40:52Z</time>
      </trkpt>
      <trkpt lat="48.1194" lon="4.87339">
        <time>2015-05-13T00:40:54Z</time>
      </trkpt>
      <trkpt lat="48.11969" lon="4.87333">
        <time>2015-05-13T00:40:57Z</time>
      </trkpt>
      <trkpt lat="48.11996" lon="4.8733">
        <time>2015-05-13T00:40:59Z</time>
      </trkpt>
      <trkpt lat="48.12052" lon="4.87322">
        <time>2015-05-13T00:41:04Z</time>
      </trkpt>
      <trkpt lat="48.12109" lon="4.87303">
        <time>2015-05-13T00:41:09Z</time>
      </trkpt>
      <trkpt lat="48.12182" lon="4.87276">
        <time>2015-05-13T00:41:15Z</time>
      </trkpt>
      <trkpt lat="48.12211" lon="4.87268">
        <time>2015-05-13T00:41:18Z</time>
      </trkpt>
      <trkpt lat="48.12272" lon="4.87256">
        <time>2015-05-13T00:41:23Z</time>
      </trkpt>
      <trkpt lat="48.12333" lon="4.87243">
        <time>2015-05-13T00:41:28Z</time>
      </trkpt>
      <trkpt lat="48.12395" lon="4.87231">
        <time>2015-05-13T00:41:33Z</time>
      </trkpt>
      <trkpt lat="48.12455" lon="4.87227">
        <time>2015-05-13T00:41:38Z</time>
      </trkpt>
      <trkpt lat="48.12514" lon="4.87226">
        <time>2015-05-13T00:41:43Z</time>
      </trkpt>
      <trkpt lat="48.12572" lon="4.87221">
        <time>2015-05-13T00:41:48Z</time>
      </trkpt>
      <trkpt lat="48.12631" lon="4.87215">
        <time>2015-05-13T00:41:53Z</time>
      </trkpt>
      <trkpt lat="48.12689" lon="4.87204">
        <time>2015-05-13T00:41:58Z</time>
      </trkpt>
      <trkpt lat="48.12809" lon="4.87174">
        <time>2015-05-13T00:42:08Z</time>
      </trkpt>
      <trkpt lat="48.12947" lon="4.87141">
        <time>2015-05-13T00:42:20Z</time>
      </trkpt>
      <trkpt lat="48.1297" lon="4.87132">
        <time>2015-05-13T00:42:22Z</time>
      </trkpt>
      <trkpt lat="48.12985" lon="4.87123">
        <time>2015-05-13T00:42:24Z</time>
      </trkpt>
      <trkpt lat="48.12989" lon="4.87133">
        <time>2015-05-13T00:42:24Z</time>
      </trkpt>
      <trkpt lat="48.12991" lon="4.87136">
        <time>2015-05-13T00:42:25Z</time>
      </trkpt>
      <trkpt lat="48.12994" lon="4.87136">
        <time>2015-05-13T00:42:25Z</time>
      </trkpt>
      <trkpt lat="48.12994" lon="4.87136">
        <time>2015-05-13T00:42:25Z</time>
      </trkpt>
      <trkpt lat="48.13031" lon="4.87107">
        <time>2015-05-13T00:42:28Z</time>
      </trkpt>
      <trkpt lat="48.13083" lon="4.87053">
        <time>2015-05-13T00:42:34Z</time>
      </trkpt>
      <trkpt lat="48.13114" lon="4.8701">
        <time>2015-05-13T00:42:37Z</time>
      </trkpt>
      <trkpt lat="48.13138" lon="4.86968">
        <time>2015-05-13T00:42:40Z</time>
      </trkpt>
      <trkpt lat="48.13159" lon="4.86926">
        <time>2015-05-13T00:42:43Z</time>
      </trkpt>
      <trkpt lat="48.13152" lon="4.86915">
        <time>2015-05-13T00:42:44Z</time>
      </trkpt>
      <trkpt lat="48.1316" lon="4.869">
        <time>2015-05-13T00:42:45Z</time>
      </trkpt>
      <trkpt lat="48.1319" lon="4.86847">
        <time>2015-05-13T00:42:49Z</time>
      </trkpt>
      <trkpt lat="48.13223" lon="4.868">
        <time>2015-05-13T00:42:53Z</time>
      </trkpt>
      <trkpt lat="48.13249" lon="4.86773">
        <time>2015-05-13T00:42:56Z</time>
      </trkpt>
      <trkpt lat="48.13274" lon="4.86753">
        <time>2015-05-13T00:42:58Z</time>
      </trkpt>
      <trkpt lat="48.13299" lon="4.8674">
        <time>2015-05-13T00:43:00Z</time>
      </trkpt>
      <trkpt lat="48.13345" lon="4.86721">
        <time>2015-05-13T00:43:04Z</time>
      </trkpt>
      <trkpt lat="48.13389" lon="4.86707">
        <time>2015-05-13T00:43:08Z</time>
      </trkpt>
      <trkpt lat="48.13402" lon="4.86698">
        <time>2015-05-13T00:43:09Z</time>
      </trkpt>
      <trkpt lat="48.13411" lon="4.86685">
        <time>2015-05-13T00:43:10Z</time>
      </trkpt>
      <trkpt lat="48.13523" lon="4.86801">
        <time>2015-05-13T00:43:22Z</time>
      </trkpt>
      <trkpt lat="48.13554" lon="4.8684">
        <time>2015-05-13T00:43:25Z</time>
      </trkpt>
      <trkpt lat="48.1358" lon="4.86868">
        <time>2015-05-13T00:43:28Z</time>
      </trkpt>
      <trkpt lat="48.13621" lon="4.8691">
        <time>2015-05-13T00:43:32Z</time>
      </trkpt>
      <trkpt lat="48.13636" lon="4.86929">
        <time>2015-05-13T00:43:34Z</time>
      </trkpt>
      <trkpt lat="48.13647" lon="4.86947">
        <time>2015-05-13T00:43:35Z</time>
      </trkpt>
      <trkpt lat="48.13654" lon="4.86985">
        <time>2015-05-13T00:43:38Z</time>
      </trkpt>
      <trkpt lat="48.13659" lon="4.87013">
        <time>2015-05-13T00:43:39Z</time>
      </trkpt>
      <trkpt lat="48.13659" lon="4.87013">
        <time>2015-05-13T00:43:39Z</time>
      </trkpt>
      <trkpt lat="48.13667" lon="4.87037">
        <time>2015-05-13T00:43:41Z</time>
      </trkpt>
      <trkpt lat="48.13677" lon="4.87052">
        <time>2015-05-13T00:43:42Z</time>
      </trkpt>
      <trkpt lat="48.13747" lon="4.87068">
        <time>2015-05-13T00:43:48Z</time>
      </trkpt>
      <trkpt lat="48.13771" lon="4.8707">
        <time>2015-05-13T00:43:50Z</time>
      </trkpt>
      <trkpt lat="48.13811" lon="4.87064">
        <time>2015-05-13T00:43:53Z</time>
      </trkpt>
      <trkpt lat="48.1382" lon="4.87064">
        <time>2015-05-13T00:43:54Z</time>
      </trkpt>
      <trkpt lat="48.13839" lon="4.87068">
        <time>2015-05-13T00:43:56Z</time>
      </trkpt>
      <trkpt lat="48.13852" lon="4.87074">
        <time>2015-05-13T00:43:57Z</time>
      </trkpt>
      <trkpt lat="48.13882" lon="4.87096">
        <time>2015-05-13T00:44:00Z</time>
      </trkpt>
      <trkpt lat="48.13896" lon="4.87105">
        <time>2015-05-13T00:44:01Z</time>
      </trkpt>
      <trkpt lat="48.1392" lon="4.87123">
        <time>2015-05-13T00:44:03Z</time>
      </trkpt>
      <trkpt lat="48.13973" lon="4.87159">
        <time>2015-05-13T00:44:08Z</time>
      </trkpt>
      <trkpt lat="48.1405" lon="4.8721">
        <time>2015-05-13T00:44:15Z</time>
      </trkpt>
      <trkpt lat="48.14077" lon="4.8724">
        <time>2015-05-13T00:44:18Z</time>
      </trkpt>
      <trkpt lat="48.1408" lon="4.87231">
        <time>2015-05-13T00:44:19Z</time>
      </trkpt>
      <trkpt lat="48.1408" lon="4.87231">
        <time>2015-05-13T00:44:19Z</time>
      </trkpt>
      <trkpt lat="48.14102" lon="4.87152">
        <time>2015-05-13T00:44:24Z</time>
      </trkpt>
      <trkpt lat="48.14125" lon="4.87036">
        <time>2015-05-13T00:44:30Z</time>
      </trkpt>
      <trkpt lat="48.14138" lon="4.86992">
        <time>2015-05-13T00:44:33Z</time>
      </trkpt>
      <trkpt lat="48.14157" lon="4.86933">
        <time>2015-05-13T00:44:37Z</time>
      </trkpt>
      <trkpt lat="48.14169" lon="4.86882">
        <time>2015-05-13T00:44:40Z</time>
      </trkpt>
      <trkpt lat="48.14181" lon="4.86817">
        <time>2015-05-13T00:44:44Z</time>
      </trkpt>
      <trkpt lat="48.14197" lon="4.86762">
        <time>2015-05-13T00:44:47Z</time>
      </trkpt>
      <trkpt lat="48.14235" lon="4.86669">
        <time>2015-05-13T00:44:53Z</time>
      </trkpt>
      <trkpt lat="48.14272" lon="4.86574">
        <time>2015-05-13T00:44:59Z</time>
      </trkpt>
      <trkpt lat="48.14287" lon="4.86529">
        <time>2015-05-13T00:45:02Z</time>
      </trkpt>
      <trkpt lat="48.14316" lon="4.86431">
        <time>2015-05-13T00:45:08Z</time>
      </trkpt>
      <trkpt lat="48.14337" lon="4.86362">
        <time>2015-05-13T00:45:13Z</time>
      </trkpt>
      <trkpt lat="48.1435" lon="4.86337">
        <time>2015-05-13T00:45:14Z</time>
      </trkpt>
      <trkpt lat="48.14366" lon="4.86316">
        <time>2015-05-13T00:45:16Z</time>
      </trkpt>
      <trkpt lat="48.14387" lon="4.86302">
        <time>2015-05-13T00:45:18Z</time>
      </trkpt>
      <trkpt lat="48.14424" lon="4.86287">
        <time>2015-05-13T00:45:21Z</time>
      </trkpt>
      <trkpt lat="48.14451" lon="4.86269">
        <time>2015-05-13T00:45:24Z</time>
      </trkpt>
      <trkpt lat="48.14478" lon="4.86238">
        <time>2015-05-13T00:45:27Z</time>
      </trkpt>
      <trkpt lat="48.14596" lon="4.86051">
        <time>2015-05-13T00:45:41Z</time>
      </trkpt>
      <trkpt lat="48.14681" lon="4.85916">
        <time>2015-05-13T00:45:52Z</time>
      </trkpt>
      <trkpt lat="48.14697" lon="4.85887">
        <time>2015-05-13T00:45:54Z</time>
      </trkpt>
      <trkpt lat="48.14713" lon="4.85858">
        <time>2015-05-13T00:45:56Z</time>
      </trkpt>
      <trkpt lat="48.14734" lon="4.8582">
        <time>2015-05-13T00:45:59Z</time>
      </trkpt>
      <trkpt lat="48.14756" lon="4.85766">
        <time>2015-05-13T00:46:02Z</time>
      </trkpt>
      <trkpt lat="48.14787" lon="4.85672">
        <time>2015-05-13T00:46:08Z</time>
      </trkpt>
      <trkpt lat="48.14794" lon="4.85649">
        <time>2015-05-13T00:46:10Z</time>
      </trkpt>
      <trkpt lat="48.14799" lon="4.85613">
        <time>2015-05-13T00:46:12Z</time>
      </trkpt>
      <trkpt lat="48.14814" lon="4.85492">
        <time>2015-05-13T00:46:19Z</time>
      </trkpt>
      <trkpt lat="48.14817" lon="4.85466">
        <time>2015-05-13T00:46:20Z</time>
      </trkpt>
      <trkpt lat="48.1482" lon="4.85458">
        <time>2015-05-13T00:46:21Z</time>
      </trkpt>
      <trkpt lat="48.14828" lon="4.85452">
        <time>2015-05-13T00:46:21Z</time>
      </trkpt>
      <trkpt lat="48.14842" lon="4.85454">
        <time>2015-05-13T00:46:23Z</time>
      </trkpt>
      <trkpt lat="48.14874" lon="4.85469">
        <time>2015-05-13T00:46:25Z</time>
      </trkpt>
      <trkpt lat="48.14885" lon="4.85468">
        <time>2015-05-13T00:46:26Z</time>
      </trkpt>
      <trkpt lat="48.14917" lon="4.85444">
        <time>2015-05-13T00:46:29Z</time>
      </trkpt>
      <trkpt lat="48.14929" lon="4.85439">
        <time>2015-05-13T00:46:30Z</time>
      </trkpt>
      <trkpt lat="48.14938" lon="4.85438">
        <time>2015-05-13T00:46:31Z</time>
      </trkpt>
      <trkpt lat="48.15022" lon="4.85446">
        <time>2015-05-13T00:46:38Z</time>
      </trkpt>
      <trkpt lat="48.15039" lon="4.855">
        <time>2015-05-13T00:46:42Z</time>
      </trkpt>
      <trkpt lat="48.15039" lon="4.855">
        <time>2015-05-13T00:46:42Z</time>
      </trkpt>
      <trkpt lat="48.15054" lon="4.85545">
        <time>2015-05-13T00:46:44Z</time>
      </trkpt>
      <trkpt lat="48.15081" lon="4.85605">
        <time>2015-05-13T00:46:49Z</time>
      </trkpt>
      <trkpt lat="48.15107" lon="4.85649">
        <time>2015-05-13T00:46:52Z</time>
      </trkpt>
      <trkpt lat="48.15135" lon="4.85685">
        <time>2015-05-13T00:46:55Z</time>
      </trkpt>
      <trkpt lat="48.1518" lon="4.85727">
        <time>2015-05-13T00:46:59Z</time>
      </trkpt>
      <trkpt lat="48.15294" lon="4.85819">
        <time>2015-05-13T00:47:10Z</time>
      </trkpt>
      <trkpt lat="48.15404" lon="4.85909">
        <time>2015-05-13T00:47:21Z</time>
      </trkpt>
      <trkpt lat="48.15437" lon="4.85932">
        <time>2015-05-13T00:47:24Z</time>
      </trkpt>
      <trkpt lat="48.15464" lon="4.85943">
        <time>2015-05-13T00:47:26Z</time>
      </trkpt>
      <trkpt lat="48.15527" lon="4.85954">
        <time>2015-05-13T00:47:32Z</time>
      </trkpt>
      <trkpt lat="48.15583" lon="4.85969">
        <time>2015-05-13T00:47:37Z</time>
      </trkpt>
      <trkpt lat="48.15618" lon="4.85984">
        <time>2015-05-13T00:47:40Z</time>
      </trkpt>
      <trkpt lat="48.15655" lon="4.86008">
        <time>2015-05-13T00:47:43Z</time>
      </trkpt>
      <trkpt lat="48.15688" lon="4.86025">
        <time>2015-05-13T00:47:46Z</time>
      </trkpt>
      <trkpt lat="48.15811" lon="4.86074">
        <time>2015-05-13T00:47:57Z</time>
      </trkpt>
      <trkpt lat="48.1583" lon="4.86088">
        <time>2015-05-13T00:47:59Z</time>
      </trkpt>
      <trkpt lat="48.159" lon="4.86156">
        <time>2015-05-13T00:48:06Z</time>
      </trkpt>
      <trkpt lat="48.15933" lon="4.86185">
        <time>2015-05-13T00:48:09Z</time>
      </trkpt>
      <trkpt lat="48.15956" lon="4.86199">
        <time>2015-05-13T00:48:11Z</time>
      </trkpt>
      <trkpt lat="48.15982" lon="4.86211">
        <time>2015-05-13T00:48:13Z</time>
      </trkpt>
      <trkpt lat="48.16013" lon="4.86221">
        <time>2015-05-13T00:48:16Z</time>
      </trkpt>
      <trkpt lat="48.16104" lon="4.86243">
        <time>2015-05-13T00:48:24Z</time>
      </trkpt>
      <trkpt lat="48.16158" lon="4.8627">
        <time>2015-05-13T00:48:29Z</time>
      </trkpt>
      <trkpt lat="48.16223" lon="4.86314">
        <time>2015-05-13T00:48:35Z</time>
      </trkpt>
      <trkpt lat="48.16308" lon="4.86374">
        <time>2015-05-13T00:48:43Z</time>
      </trkpt>
      <trkpt lat="48.164" lon="4.86448">
        <time>2015-05-13T00:48:51Z</time>
      </trkpt>
      <trkpt lat="48.16473" lon="4.86507">
        <time>2015-05-13T00:48:58Z</time>
      </trkpt>
      <trkpt lat="48.16504" lon="4.86544">
        <time>2015-05-13T00:49:02Z</time>
      </trkpt>
      <trkpt lat="48.16523" lon="4.86572">
        <time>2015-05-13T00:49:04Z</time>
      </trkpt>
      <trkpt lat="48.16551" lon="4.86619">
        <time>2015-05-13T00:49:08Z</time>
      </trkpt>
      <trkpt lat="48.16611" lon="4.86724">
        <time>2015-05-13T00:49:15Z</time>
      </trkpt>
      <trkpt lat="48.1666" lon="4.86819">
        <time>2015-05-13T00:49:22Z</time>
      </trkpt>
      <trkpt lat="48.16678" lon="4.86867">
        <time>2015-05-13T00:49:25Z</time>
      </trkpt>
      <trkpt lat="48.16688" lon="4.8691">
        <time>2015-05-13T00:49:28Z</time>
      </trkpt>
      <trkpt lat="48.16691" lon="4.86954">
        <time>2015-05-13T00:49:30Z</time>
      </trkpt>
      <trkpt lat="48.16699" lon="4.8728">
        <time>2015-05-13T00:49:49Z</time>
      </trkpt>
      <trkpt lat="48.16705" lon="4.87369">
        <time>2015-05-13T00:49:54Z</time>
      </trkpt>
      <trkpt lat="48.16716" lon="4.87457">
        <time>2015-05-13T00:49:59Z</time>
      </trkpt>
      <trkpt lat="48.16731" lon="4.87537">
        <time>2015-05-13T00:50:03Z</time>
      </trkpt>
      <trkpt lat="48.16758" lon="4.87628">
        <time>2015-05-13T00:50:09Z</time>
      </trkpt>
      <trkpt lat="48.16772" lon="4.87667">
        <time>2015-05-13T00:50:12Z</time>
      </trkpt>
      <trkpt lat="48.16799" lon="4.87725">
        <time>2015-05-13T00:50:16Z</time>
      </trkpt>
      <trkpt lat="48.16881" lon="4.87882">
        <time>2015-05-13T00:50:27Z</time>
      </trkpt>
      <trkpt lat="48.16895" lon="4.87932">
        <time>2015-05-13T00:50:30Z</time>
      </trkpt>
      <trkpt lat="48.16902" lon="4.87967">
        <time>2015-05-13T00:50:32Z</time>
      </trkpt>
      <trkpt lat="48.16902" lon="4.87967">
        <time>2015-05-13T00:50:32Z</time>
      </trkpt>
      <trkpt lat="48.16903" lon="4.87974">
        <time>2015-05-13T00:50:32Z</time>
      </trkpt>
      <trkpt lat="48.16917" lon="4.87967">
        <time>2015-05-13T00:50:34Z</time>
      </trkpt>
      <trkpt lat="48.1693" lon="4.87959">
        <time>2015-05-13T00:50:35Z</time>
      </trkpt>
      <trkpt lat="48.16991" lon="4.87911">
        <time>2015-05-13T00:50:41Z</time>
      </trkpt>
      <trkpt lat="48.17078" lon="4.87843">
        <time>2015-05-13T00:50:49Z</time>
      </trkpt>
      <trkpt lat="48.17102" lon="4.87822">
        <time>2015-05-13T00:50:51Z</time>
      </trkpt>
      <trkpt lat="48.17123" lon="4.87801">
        <time>2015-05-13T00:50:53Z</time>
      </trkpt>
      <trkpt lat="48.17158" lon="4.87756">
        <time>2015-05-13T00:50:57Z</time>
      </trkpt>
      <trkpt lat="48.17203" lon="4.87674">
        <time>2015-05-13T00:51:03Z</time>
      </trkpt>
      <trkpt lat="48.17258" lon="4.87598">
        <time>2015-05-13T00:51:10Z</time>
      </trkpt>
      <trkpt lat="48.17347" lon="4.87505">
        <time>2015-05-13T00:51:19Z</time>
      </trkpt>
      <trkpt lat="48.17408" lon="4.8744">
        <time>2015-05-13T00:51:25Z</time>
      </trkpt>
      <trkpt lat="48.17446" lon="4.87408">
        <time>2015-05-13T00:51:29Z</time>
      </trkpt>
      <trkpt lat="48.17525" lon="4.87354">
        <time>2015-05-13T00:51:36Z</time>
      </trkpt>
      <trkpt lat="48.17546" lon="4.87335">
        <time>2015-05-13T00:51:38Z</time>
      </trkpt>
      <trkpt lat="48.17581" lon="4.87298">
        <time>2015-05-13T00:51:42Z</time>
      </trkpt>
      <trkpt lat="48.17601" lon="4.87277">
        <time>2015-05-13T00:51:44Z</time>
      </trkpt>
      <trkpt lat="48.17666" lon="4.87223">
        <time>2015-05-13T00:51:50Z</time>
      </trkpt>
      <trkpt lat="48.17686" lon="4.87208">
        <time>2015-05-13T00:51:52Z</time>
      </trkpt>
      <trkpt lat="48.17709" lon="4.87194">
        <time>2015-05-13T00:51:54Z</time>
      </trkpt>
      <trkpt lat="48.17741" lon="4.87182">
        <time>2015-05-13T00:51:57Z</time>
      </trkpt>
      <trkpt lat="48.17759" lon="4.87179">
        <time>2015-05-13T00:51:58Z</time>
      </trkpt>
      <trkpt lat="48.17781" lon="4.87179">
        <time>2015-05-13T00:52:00Z</time>
      </trkpt>
      <trkpt lat="48.17818" lon="4.87184">
        <time>2015-05-13T00:52:03Z</time>
      </trkpt>
      <trkpt lat="48.17836" lon="4.87186">
        <time>2015-05-13T00:52:05Z</time>
      </trkpt>
      <trkpt lat="48.17853" lon="4.87184">
        <time>2015-05-13T00:52:06Z</time>
      </trkpt>
      <trkpt lat="48.17868" lon="4.87177">
        <time>2015-05-13T00:52:08Z</time>
      </trkpt>
      <trkpt lat="48.17879" lon="4.87168">
        <time>2015-05-13T00:52:09Z</time>
      </trkpt>
      <trkpt lat="48.17898" lon="4.87137">
        <time>2015-05-13T00:52:11Z</time>
      </trkpt>
      <trkpt lat="48.17923" lon="4.8709">
        <time>2015-05-13T00:52:15Z</time>
      </trkpt>
      <trkpt lat="48.17932" lon="4.87067">
        <time>2015-05-13T00:52:16Z</time>
      </trkpt>
      <trkpt lat="48.17961" lon="4.8695">
        <time>2015-05-13T00:52:23Z</time>
      </trkpt>
      <trkpt lat="48.17976" lon="4.86883">
        <time>2015-05-13T00:52:27Z</time>
      </trkpt>
      <trkpt lat="48.1799" lon="4.86853">
        <time>2015-05-13T00:52:29Z</time>
      </trkpt>
      <trkpt lat="48.18027" lon="4.86812">
        <time>2015-05-13T00:52:33Z</time>
      </trkpt>
      <trkpt lat="48.18091" lon="4.86755">
        <time>2015-05-13T00:52:39Z</time>
      </trkpt>
      <trkpt lat="48.1817" lon="4.86679">
        <time>2015-05-13T00:52:47Z</time>
      </trkpt>
      <trkpt lat="48.18198" lon="4.86655">
        <time>2015-05-13T00:52:50Z</time>
      </trkpt>
      <trkpt lat="48.18207" lon="4.86652">
        <time>2015-05-13T00:52:51Z</time>
      </trkpt>
      <trkpt lat="48.18225" lon="4.86652">
        <time>2015-05-13T00:52:52Z</time>
      </trkpt>
      <trkpt lat="48.18256" lon="4.86662">
        <time>2015-05-13T00:52:55Z</time>
      </trkpt>
      <trkpt lat="48.18277" lon="4.86665">
        <time>2015-05-13T00:52:57Z</time>
      </trkpt>
      <trkpt lat="48.18296" lon="4.8666">
        <time>2015-05-13T00:52:58Z</time>
      </trkpt>
      <trkpt lat="48.1831" lon="4.8665">
        <time>2015-05-13T00:53:00Z</time>
      </trkpt>
      <trkpt lat="48.18322" lon="4.86637">
        <time>2015-05-13T00:53:01Z</time>
      </trkpt>
      <trkpt lat="48.18342" lon="4.86609">
        <time>2015-05-13T00:53:03Z</time>
      </trkpt>
      <trkpt lat="48.18359" lon="4.8658">
        <time>2015-05-13T00:53:05Z</time>
      </trkpt>
      <trkpt lat="48.18389" lon="4.86538">
        <time>2015-05-13T00:53:09Z</time>
      </trkpt>
      <trkpt lat="48.1841" lon="4.86514">
        <time>2015-05-13T00:53:11Z</time>
      </trkpt>
      <trkpt lat="48.1843" lon="4.86501">
        <time>2015-05-13T00:53:13Z</time>
      </trkpt>
      <trkpt lat="48.18459" lon="4.86492">
        <time>2015-05-13T00:53:16Z</time>
      </trkpt>
      <trkpt lat="48.18482" lon="4.86488">
        <time>2015-05-13T00:53:17Z</time>
      </trkpt>
      <trkpt lat="48.18516" lon="4.86489">
        <time>2015-05-13T00:53:20Z</time>
      </trkpt>
      <trkpt lat="48.18556" lon="4.86495">
        <time>2015-05-13T00:53:24Z</time>
      </trkpt>
      <trkpt lat="48.18599" lon="4.86503">
        <time>2015-05-13T00:53:27Z</time>
      </trkpt>
      <trkpt lat="48.1862" lon="4.86498">
        <time>2015-05-13T00:53:29Z</time>
      </trkpt>
      <trkpt lat="48.18641" lon="4.86486">
        <time>2015-05-13T00:53:31Z</time>
      </trkpt>
      <trkpt lat="48.18672" lon="4.86475">
        <time>2015-05-13T00:53:34Z</time>
      </trkpt>
      <trkpt lat="48.18716" lon="4.86466">
        <time>2015-05-13T00:53:38Z</time>
      </trkpt>
      <trkpt lat="48.18742" lon="4.86458">
        <time>2015-05-13T00:53:40Z</time>
      </trkpt>
      <trkpt lat="48.18761" lon="4.86446">
        <time>2015-05-13T00:53:42Z</time>
      </trkpt>
      <trkpt lat="48.18777" lon="4.86432">
        <time>2015-05-13T00:53:43Z</time>
      </trkpt>
      <trkpt lat="48.18796" lon="4.8641">
        <time>2015-05-13T00:53:45Z</time>
      </trkpt>
      <trkpt lat="48.18832" lon="4.86347">
        <time>2015-05-13T00:53:50Z</time>
      </trkpt>
      <trkpt lat="48.18844" lon="4.86323">
        <time>2015-05-13T00:53:51Z</time>
      </trkpt>
      <trkpt lat="48.18853" lon="4.8631">
        <time>2015-05-13T00:53:53Z</time>
      </trkpt>
      <trkpt lat="48.18872" lon="4.86287">
        <time>2015-05-13T00:53:55Z</time>
      </trkpt>
      <trkpt lat="48.18896" lon="4.86267">
        <time>2015-05-13T00:53:57Z</time>
      </trkpt>
      <trkpt lat="48.18916" lon="4.86253">
        <time>2015-05-13T00:53:59Z</time>
      </trkpt>
      <trkpt lat="48.18926" lon="4.86251">
        <time>2015-05-13T00:54:00Z</time>
      </trkpt>
      <trkpt lat="48.18964" lon="4.86253">
        <time>2015-05-13T00:54:03Z</time>
      </trkpt>
      <trkpt lat="48.19029" lon="4.86275">
        <time>2015-05-13T00:54:08Z</time>
      </trkpt>
      <trkpt lat="48.19063" lon="4.86275">
        <time>2015-05-13T00:54:11Z</time>
      </trkpt>
      <trkpt lat="48.19106" lon="4.86264">
        <time>2015-05-13T00:54:15Z</time>
      </trkpt>
      <trkpt lat="48.19203" lon="4.86218">
        <time>2015-05-13T00:54:24Z</time>
      </trkpt>
      <trkpt lat="48.19253" lon="4.86194">
        <time>2015-05-13T00:54:28Z</time>
      </trkpt>
      <trkpt lat="48.19261" lon="4.86193">
        <time>2015-05-13T00:54:29Z</time>
      </trkpt>
      <trkpt lat="48.19285" lon="4.86188">
        <time>2015-05-13T00:54:31Z</time>
      </trkpt>
      <trkpt lat="48.19351" lon="4.86181">
        <time>2015-05-13T00:54:36Z</time>
      </trkpt>
      <trkpt lat="48.194" lon="4.86171">
        <time>2015-05-13T00:54:41Z</time>
      </trkpt>
      <trkpt lat="48.1943" lon="4.8616">
        <time>2015-05-13T00:54:43Z</time>
      </trkpt>
      <trkpt lat="48.1946" lon="4.86142">
        <time>2015-05-13T00:54:46Z</time>
      </trkpt>
      <trkpt lat="48.19492" lon="4.86127">
        <time>2015-05-13T00:54:49Z</time>
      </trkpt>
      <trkpt lat="48.19534" lon="4.86121">
        <time>2015-05-13T00:54:52Z</time>
      </trkpt>
      <trkpt lat="48.19563" lon="4.86122">
        <time>2015-05-13T00:54:55Z</time>
      </trkpt>
      <trkpt lat="48.1958" lon="4.86126">
        <time>2015-05-13T00:54:56Z</time>
      </trkpt>
      <trkpt lat="48.19596" lon="4.86131">
        <time>2015-05-13T00:54:58Z</time>
      </trkpt>
      <trkpt lat="48.19623" lon="4.86147">
        <time>2015-05-13T00:55:00Z</time>
      </trkpt>
      <trkpt lat="48.19635" lon="4.86155">
        <time>2015-05-13T00:55:01Z</time>
      </trkpt>
      <trkpt lat="48.19677" lon="4.86194">
        <time>2015-05-13T00:55:05Z</time>
      </trkpt>
      <trkpt lat="48.19776" lon="4.86289">
        <time>2015-05-13T00:55:15Z</time>
      </trkpt>
      <trkpt lat="48.19806" lon="4.86326">
        <time>2015-05-13T00:55:19Z</time>
      </trkpt>
      <trkpt lat="48.19866" lon="4.86417">
        <time>2015-05-13T00:55:26Z</time>
      </trkpt>
      <trkpt lat="48.19866" lon="4.86417">
        <time>2015-05-13T00:55:26Z</time>
      </trkpt>
      <trkpt lat="48.20005" lon="4.86629">
        <time>2015-05-13T00:55:43Z</time>
      </trkpt>
      <trkpt lat="48.20079" lon="4.86737">
        <time>2015-05-13T00:55:51Z</time>
      </trkpt>
      <trkpt lat="48.20382" lon="4.87182">
        <time>2015-05-13T00:56:27Z</time>
      </trkpt>
      <trkpt lat="48.20657" lon="4.87576">
        <time>2015-05-13T00:56:59Z</time>
      </trkpt>
      <trkpt lat="48.20967" lon="4.88016">
        <time>2015-05-13T00:57:35Z</time>
      </trkpt>
      <trkpt lat="48.21005" lon="4.88063">
        <time>2015-05-13T00:57:40Z</time>
      </trkpt>
      <trkpt lat="48.21045" lon="4.88099">
        <time>2015-05-13T00:57:43Z</time>
      </trkpt>
      <trkpt lat="48.21064" lon="4.88113">
        <time>2015-05-13T00:57:45Z</time>
      </trkpt>
      <trkpt lat="48.21089" lon="4.88125">
        <time>2015-05-13T00:57:47Z</time>
      </trkpt>
      <trkpt lat="48.21148" lon="4.88148">
        <time>2015-05-13T00:57:53Z</time>
      </trkpt>
      <trkpt lat="48.21291" lon="4.88181">
        <time>2015-05-13T00:58:05Z</time>
      </trkpt>
      <trkpt lat="48.21368" lon="4.882">
        <time>2015-05-13T00:58:11Z</time>
      </trkpt>
      <trkpt lat="48.21386" lon="4.88208">
        <time>2015-05-13T00:58:13Z</time>
      </trkpt>
      <trkpt lat="48.21402" lon="4.88219">
        <time>2015-05-13T00:58:15Z</time>
      </trkpt>
      <trkpt lat="48.21457" lon="4.88263">
        <time>2015-05-13T00:58:20Z</time>
      </trkpt>
      <trkpt lat="48.21499" lon="4.88299">
        <time>2015-05-13T00:58:24Z</time>
      </trkpt>
      <trkpt lat="48.21563" lon="4.8835">
        <time>2015-05-13T00:58:30Z</time>
      </trkpt>
      <trkpt lat="48.21593" lon="4.88375">
        <time>2015-05-13T00:58:33Z</time>
      </trkpt>
      <trkpt lat="48.2163" lon="4.88399">
        <time>2015-05-13T00:58:36Z</time>
      </trkpt>
      <trkpt lat="48.2168" lon="4.88423">
        <time>2015-05-13T00:58:41Z</time>
      </trkpt>
      <trkpt lat="48.21731" lon="4.88444">
        <time>2015-05-13T00:58:45Z</time>
      </trkpt>
      <trkpt lat="48.21778" lon="4.8846">
        <time>2015-05-13T00:58:49Z</time>
      </trkpt>
      <trkpt lat="48.21806" lon="4.88468">
        <time>2015-05-13T00:58:52Z</time>
      </trkpt>
      <trkpt lat="48.21911" lon="4.88494">
        <time>2015-05-13T00:59:01Z</time>
      </trkpt>
      <trkpt lat="48.21965" lon="4.88513">
        <time>2015-05-13T00:59:05Z</time>
      </trkpt>
      <trkpt lat="48.22032" lon="4.88535">
        <time>2015-05-13T00:59:11Z</time>
      </trkpt>
      <trkpt lat="48.221" lon="4.88554">
        <time>2015-05-13T00:59:17Z</time>
      </trkpt>
      <trkpt lat="48.22148" lon="4.88572">
        <time>2015-05-13T00:59:21Z</time>
      </trkpt>
      <trkpt lat="48.22163" lon="4.8858">
        <time>2015-05-13T00:59:23Z</time>
      </trkpt>
      <trkpt lat="48.22189" lon="4.88603">
        <time>2015-05-13T00:59:25Z</time>
      </trkpt>
      <trkpt lat="48.22202" lon="4.88612">
        <time>2015-05-13T00:59:26Z</time>
      </trkpt>
      <trkpt lat="48.22214" lon="4.88615">
        <time>2015-05-13T00:59:27Z</time>
      </trkpt>
      <trkpt lat="48.22227" lon="4.88615">
        <time>2015-05-13T00:59:28Z</time>
      </trkpt>
      <trkpt lat="48.22243" lon="4.8861">
        <time>2015-05-13T00:59:30Z</time>
      </trkpt>
      <trkpt lat="48.22286" lon="4.88596">
        <time>2015-05-13T00:59:34Z</time>
      </trkpt>
      <trkpt lat="48.22322" lon="4.88587">
        <time>2015-05-13T00:59:37Z</time>
      </trkpt>
      <trkpt lat="48.22345" lon="4.88578">
        <time>2015-05-13T00:59:39Z</time>
      </trkpt>
      <trkpt lat="48.2236" lon="4.88576">
        <time>2015-05-13T00:59:40Z</time>
      </trkpt>
      <trkpt lat="48.2237" lon="4.88577">
        <time>2015-05-13T00:59:41Z</time>
      </trkpt>
      <trkpt lat="48.22379" lon="4.88582">
        <time>2015-05-13T00:59:42Z</time>
      </trkpt>
      <trkpt lat="48.22391" lon="4.88592">
        <time>2015-05-13T00:59:43Z</time>
      </trkpt>
      <trkpt lat="48.22403" lon="4.88608">
        <time>2015-05-13T00:59:44Z</time>
      </trkpt>
      <trkpt lat="48.22412" lon="4.88629">
        <time>2015-05-13T00:59:46Z</time>
      </trkpt>
      <trkpt lat="48.22427" lon="4.88653">
        <time>2015-05-13T00:59:47Z</time>
      </trkpt>
      <trkpt lat="48.22467" lon="4.88698">
        <time>2015-05-13T00:59:52Z</time>
      </trkpt>
      <trkpt lat="48.22515" lon="4.88751">
        <time>2015-05-13T00:59:57Z</time>
      </trkpt>
    </trkseg>
  </trk>
</gpx>

